<?xml version="1.0" encoding="UTF-8" standalone="no" ?>
<gpx xmlns="http://www.topografix.com/GPX/1/1" xmlns:xsi="http://www.w3.org/2001/XMLSchema-instance" xsi:schemaLocation="http://www.topografix.com/GPX/1/1 http://www.topografix.com/GPX/1/1/gpx.xsd" version="1.1" creator="VisuGPX - https://www.visugpx.com">
  <metadata>
    <name>Balade gym Marsannay du jeui 16-11-2017</name>
    <desc><![CDATA[Aux participant(e)s, notez la petite "appendice" aux environs du km 5.25 !!]]></desc>
  </metadata>
  <trk>
    <name><![CDATA[Balade gym Marsannay du jeui 16-11-2017_1]]></name>
    <trkseg>
      <trkpt lat="47.27975" lon="5.00288">
        <ele>254.736</ele>
        <time>2017-11-16T09:00:40Z</time>
      </trkpt>
      <trkpt lat="47.27973" lon="5.00288">
        <ele>255.215</ele>
        <time>2017-11-16T09:00:51Z</time>
      </trkpt>
      <trkpt lat="47.27973" lon="5.00288">
        <ele>255.455</ele>
        <time>2017-11-16T09:01:02Z</time>
      </trkpt>
      <trkpt lat="47.27973" lon="5.00287">
        <ele>255.042</ele>
        <time>2017-11-16T09:01:13Z</time>
      </trkpt>
      <trkpt lat="47.27973" lon="5.00287">
        <ele>255.042</ele>
        <time>2017-11-16T09:01:24Z</time>
      </trkpt>
      <trkpt lat="47.27973" lon="5.00287">
        <ele>255.042</ele>
        <time>2017-11-16T09:01:35Z</time>
      </trkpt>
      <trkpt lat="47.27973" lon="5.00288">
        <ele>254.724</ele>
        <time>2017-11-16T09:01:46Z</time>
      </trkpt>
      <trkpt lat="47.27973" lon="5.00288">
        <ele>254.873</ele>
        <time>2017-11-16T09:01:57Z</time>
      </trkpt>
      <trkpt lat="47.27973" lon="5.00288">
        <ele>254.885</ele>
        <time>2017-11-16T09:02:08Z</time>
      </trkpt>
      <trkpt lat="47.27973" lon="5.00287">
        <ele>254.618</ele>
        <time>2017-11-16T09:02:19Z</time>
      </trkpt>
      <trkpt lat="47.27968" lon="5.00278">
        <ele>256.934</ele>
        <time>2017-11-16T09:02:30Z</time>
      </trkpt>
      <trkpt lat="47.27965" lon="5.00273">
        <ele>258.125</ele>
        <time>2017-11-16T09:02:41Z</time>
      </trkpt>
      <trkpt lat="47.2796" lon="5.0026">
        <ele>261.183</ele>
        <time>2017-11-16T09:02:52Z</time>
      </trkpt>
      <trkpt lat="47.27952" lon="5.00252">
        <ele>262.371</ele>
        <time>2017-11-16T09:03:03Z</time>
      </trkpt>
      <trkpt lat="47.27943" lon="5.00245">
        <ele>263.241</ele>
        <time>2017-11-16T09:03:14Z</time>
      </trkpt>
      <trkpt lat="47.27935" lon="5.00232">
        <ele>265.624</ele>
        <time>2017-11-16T09:03:25Z</time>
      </trkpt>
      <trkpt lat="47.27932" lon="5.00212">
        <ele>265.946</ele>
        <time>2017-11-16T09:03:36Z</time>
      </trkpt>
      <trkpt lat="47.27925" lon="5.00193">
        <ele>266.353</ele>
        <time>2017-11-16T09:03:47Z</time>
      </trkpt>
      <trkpt lat="47.27918" lon="5.00175">
        <ele>268.28</ele>
        <time>2017-11-16T09:03:58Z</time>
      </trkpt>
      <trkpt lat="47.27912" lon="5.00157">
        <ele>269.424</ele>
        <time>2017-11-16T09:04:09Z</time>
      </trkpt>
      <trkpt lat="47.27907" lon="5.00138">
        <ele>270.504</ele>
        <time>2017-11-16T09:04:20Z</time>
      </trkpt>
      <trkpt lat="47.279" lon="5.00122">
        <ele>270.173</ele>
        <time>2017-11-16T09:04:31Z</time>
      </trkpt>
      <trkpt lat="47.27892" lon="5.00108">
        <ele>269.809</ele>
        <time>2017-11-16T09:04:42Z</time>
      </trkpt>
      <trkpt lat="47.27885" lon="5.00102">
        <ele>270.182</ele>
        <time>2017-11-16T09:04:53Z</time>
      </trkpt>
      <trkpt lat="47.27875" lon="5.00093">
        <ele>271.55</ele>
        <time>2017-11-16T09:05:04Z</time>
      </trkpt>
      <trkpt lat="47.2787" lon="5.00075">
        <ele>273.278</ele>
        <time>2017-11-16T09:05:15Z</time>
      </trkpt>
      <trkpt lat="47.27865" lon="5.00057">
        <ele>274.386</ele>
        <time>2017-11-16T09:05:26Z</time>
      </trkpt>
      <trkpt lat="47.2786" lon="5.00038">
        <ele>274.358</ele>
        <time>2017-11-16T09:05:37Z</time>
      </trkpt>
      <trkpt lat="47.27855" lon="5.00022">
        <ele>275.36</ele>
        <time>2017-11-16T09:05:48Z</time>
      </trkpt>
      <trkpt lat="47.27852" lon="5.00005">
        <ele>277.606</ele>
        <time>2017-11-16T09:05:59Z</time>
      </trkpt>
      <trkpt lat="47.27845" lon="4.99987">
        <ele>277.656</ele>
        <time>2017-11-16T09:06:10Z</time>
      </trkpt>
      <trkpt lat="47.2784" lon="4.99967">
        <ele>278.021</ele>
        <time>2017-11-16T09:06:21Z</time>
      </trkpt>
      <trkpt lat="47.27835" lon="4.99948">
        <ele>278.686</ele>
        <time>2017-11-16T09:06:32Z</time>
      </trkpt>
      <trkpt lat="47.2783" lon="4.99932">
        <ele>277.536</ele>
        <time>2017-11-16T09:06:43Z</time>
      </trkpt>
      <trkpt lat="47.27827" lon="4.99913">
        <ele>278.724</ele>
        <time>2017-11-16T09:06:54Z</time>
      </trkpt>
      <trkpt lat="47.27823" lon="4.99898">
        <ele>277.345</ele>
        <time>2017-11-16T09:07:05Z</time>
      </trkpt>
      <trkpt lat="47.2782" lon="4.99885">
        <ele>278.59</ele>
        <time>2017-11-16T09:07:16Z</time>
      </trkpt>
      <trkpt lat="47.27817" lon="4.99868">
        <ele>278.864</ele>
        <time>2017-11-16T09:07:27Z</time>
      </trkpt>
      <trkpt lat="47.27813" lon="4.99848">
        <ele>278.307</ele>
        <time>2017-11-16T09:07:38Z</time>
      </trkpt>
      <trkpt lat="47.27805" lon="4.99835">
        <ele>277.248</ele>
        <time>2017-11-16T09:07:49Z</time>
      </trkpt>
      <trkpt lat="47.27797" lon="4.99822">
        <ele>277.006</ele>
        <time>2017-11-16T09:08:00Z</time>
      </trkpt>
      <trkpt lat="47.2779" lon="4.99805">
        <ele>277.129</ele>
        <time>2017-11-16T09:08:11Z</time>
      </trkpt>
      <trkpt lat="47.27785" lon="4.99788">
        <ele>276.272</ele>
        <time>2017-11-16T09:08:22Z</time>
      </trkpt>
      <trkpt lat="47.27782" lon="4.99768">
        <ele>275.327</ele>
        <time>2017-11-16T09:08:33Z</time>
      </trkpt>
      <trkpt lat="47.2778" lon="4.99748">
        <ele>273.547</ele>
        <time>2017-11-16T09:08:44Z</time>
      </trkpt>
      <trkpt lat="47.27782" lon="4.99733">
        <ele>275.395</ele>
        <time>2017-11-16T09:08:55Z</time>
      </trkpt>
      <trkpt lat="47.27782" lon="4.9972">
        <ele>275.631</ele>
        <time>2017-11-16T09:09:06Z</time>
      </trkpt>
      <trkpt lat="47.27787" lon="4.99703">
        <ele>277.05</ele>
        <time>2017-11-16T09:09:17Z</time>
      </trkpt>
      <trkpt lat="47.2779" lon="4.99683">
        <ele>275.637</ele>
        <time>2017-11-16T09:09:28Z</time>
      </trkpt>
      <trkpt lat="47.27795" lon="4.9967">
        <ele>274.768</ele>
        <time>2017-11-16T09:09:39Z</time>
      </trkpt>
      <trkpt lat="47.27802" lon="4.99652">
        <ele>274.984</ele>
        <time>2017-11-16T09:09:50Z</time>
      </trkpt>
      <trkpt lat="47.27805" lon="4.99637">
        <ele>276.43</ele>
        <time>2017-11-16T09:10:01Z</time>
      </trkpt>
      <trkpt lat="47.2781" lon="4.99618">
        <ele>276.565</ele>
        <time>2017-11-16T09:10:12Z</time>
      </trkpt>
      <trkpt lat="47.27813" lon="4.996">
        <ele>277.706</ele>
        <time>2017-11-16T09:10:23Z</time>
      </trkpt>
      <trkpt lat="47.2782" lon="4.9959">
        <ele>279.341</ele>
        <time>2017-11-16T09:10:34Z</time>
      </trkpt>
      <trkpt lat="47.27827" lon="4.99583">
        <ele>280.811</ele>
        <time>2017-11-16T09:10:45Z</time>
      </trkpt>
      <trkpt lat="47.27828" lon="4.99563">
        <ele>280.375</ele>
        <time>2017-11-16T09:10:56Z</time>
      </trkpt>
      <trkpt lat="47.27827" lon="4.99552">
        <ele>279.085</ele>
        <time>2017-11-16T09:11:07Z</time>
      </trkpt>
      <trkpt lat="47.27828" lon="4.9954">
        <ele>280.524</ele>
        <time>2017-11-16T09:11:18Z</time>
      </trkpt>
      <trkpt lat="47.27832" lon="4.99525">
        <ele>280.84</ele>
        <time>2017-11-16T09:11:29Z</time>
      </trkpt>
      <trkpt lat="47.27837" lon="4.99512">
        <ele>281.577</ele>
        <time>2017-11-16T09:11:40Z</time>
      </trkpt>
      <trkpt lat="47.27842" lon="4.99493">
        <ele>283.435</ele>
        <time>2017-11-16T09:11:51Z</time>
      </trkpt>
      <trkpt lat="47.27845" lon="4.9948">
        <ele>282.253</ele>
        <time>2017-11-16T09:12:02Z</time>
      </trkpt>
      <trkpt lat="47.2785" lon="4.99467">
        <ele>281.1</ele>
        <time>2017-11-16T09:12:13Z</time>
      </trkpt>
      <trkpt lat="47.27855" lon="4.99452">
        <ele>280.434</ele>
        <time>2017-11-16T09:12:24Z</time>
      </trkpt>
      <trkpt lat="47.27858" lon="4.9944">
        <ele>280.596</ele>
        <time>2017-11-16T09:12:35Z</time>
      </trkpt>
      <trkpt lat="47.27865" lon="4.99422">
        <ele>281.702</ele>
        <time>2017-11-16T09:12:46Z</time>
      </trkpt>
      <trkpt lat="47.2787" lon="4.99402">
        <ele>281.778</ele>
        <time>2017-11-16T09:12:57Z</time>
      </trkpt>
      <trkpt lat="47.27875" lon="4.99387">
        <ele>282.089</ele>
        <time>2017-11-16T09:13:08Z</time>
      </trkpt>
      <trkpt lat="47.2788" lon="4.9937">
        <ele>282.985</ele>
        <time>2017-11-16T09:13:19Z</time>
      </trkpt>
      <trkpt lat="47.27887" lon="4.99355">
        <ele>283.329</ele>
        <time>2017-11-16T09:13:30Z</time>
      </trkpt>
      <trkpt lat="47.27892" lon="4.9934">
        <ele>284.244</ele>
        <time>2017-11-16T09:13:41Z</time>
      </trkpt>
      <trkpt lat="47.27897" lon="4.99323">
        <ele>283.434</ele>
        <time>2017-11-16T09:13:52Z</time>
      </trkpt>
      <trkpt lat="47.27903" lon="4.99305">
        <ele>284.294</ele>
        <time>2017-11-16T09:14:03Z</time>
      </trkpt>
      <trkpt lat="47.27908" lon="4.9929">
        <ele>285.149</ele>
        <time>2017-11-16T09:14:14Z</time>
      </trkpt>
      <trkpt lat="47.27913" lon="4.99277">
        <ele>287.303</ele>
        <time>2017-11-16T09:14:25Z</time>
      </trkpt>
      <trkpt lat="47.27917" lon="4.99263">
        <ele>288.299</ele>
        <time>2017-11-16T09:14:36Z</time>
      </trkpt>
      <trkpt lat="47.27922" lon="4.99248">
        <ele>287.394</ele>
        <time>2017-11-16T09:14:47Z</time>
      </trkpt>
      <trkpt lat="47.2793" lon="4.99233">
        <ele>287.512</ele>
        <time>2017-11-16T09:14:58Z</time>
      </trkpt>
      <trkpt lat="47.27937" lon="4.99217">
        <ele>286.995</ele>
        <time>2017-11-16T09:15:09Z</time>
      </trkpt>
      <trkpt lat="47.2794" lon="4.99198">
        <ele>287.636</ele>
        <time>2017-11-16T09:15:20Z</time>
      </trkpt>
      <trkpt lat="47.27945" lon="4.99182">
        <ele>287.926</ele>
        <time>2017-11-16T09:15:31Z</time>
      </trkpt>
      <trkpt lat="47.2795" lon="4.99165">
        <ele>288.99</ele>
        <time>2017-11-16T09:15:42Z</time>
      </trkpt>
      <trkpt lat="47.27955" lon="4.99148">
        <ele>288.318</ele>
        <time>2017-11-16T09:15:53Z</time>
      </trkpt>
      <trkpt lat="47.27958" lon="4.99132">
        <ele>287.622</ele>
        <time>2017-11-16T09:16:04Z</time>
      </trkpt>
      <trkpt lat="47.27957" lon="4.99117">
        <ele>286.852</ele>
        <time>2017-11-16T09:16:15Z</time>
      </trkpt>
      <trkpt lat="47.27953" lon="4.991">
        <ele>286.541</ele>
        <time>2017-11-16T09:16:26Z</time>
      </trkpt>
      <trkpt lat="47.27947" lon="4.99085">
        <ele>287.08</ele>
        <time>2017-11-16T09:16:37Z</time>
      </trkpt>
      <trkpt lat="47.27942" lon="4.9907">
        <ele>287.367</ele>
        <time>2017-11-16T09:16:48Z</time>
      </trkpt>
      <trkpt lat="47.27937" lon="4.99053">
        <ele>288.051</ele>
        <time>2017-11-16T09:16:59Z</time>
      </trkpt>
      <trkpt lat="47.27933" lon="4.99038">
        <ele>289.443</ele>
        <time>2017-11-16T09:17:10Z</time>
      </trkpt>
      <trkpt lat="47.2793" lon="4.99022">
        <ele>289.592</ele>
        <time>2017-11-16T09:17:21Z</time>
      </trkpt>
      <trkpt lat="47.27927" lon="4.99007">
        <ele>287.721</ele>
        <time>2017-11-16T09:17:32Z</time>
      </trkpt>
      <trkpt lat="47.27925" lon="4.98988">
        <ele>287.106</ele>
        <time>2017-11-16T09:17:43Z</time>
      </trkpt>
      <trkpt lat="47.27925" lon="4.9897">
        <ele>287.42</ele>
        <time>2017-11-16T09:17:54Z</time>
      </trkpt>
      <trkpt lat="47.27927" lon="4.98952">
        <ele>287.861</ele>
        <time>2017-11-16T09:18:05Z</time>
      </trkpt>
      <trkpt lat="47.2793" lon="4.98935">
        <ele>288.558</ele>
        <time>2017-11-16T09:18:16Z</time>
      </trkpt>
      <trkpt lat="47.27933" lon="4.98915">
        <ele>289.089</ele>
        <time>2017-11-16T09:18:27Z</time>
      </trkpt>
      <trkpt lat="47.27938" lon="4.98898">
        <ele>287.257</ele>
        <time>2017-11-16T09:18:38Z</time>
      </trkpt>
      <trkpt lat="47.27943" lon="4.98885">
        <ele>286.822</ele>
        <time>2017-11-16T09:18:49Z</time>
      </trkpt>
      <trkpt lat="47.27952" lon="4.98872">
        <ele>284.502</ele>
        <time>2017-11-16T09:19:00Z</time>
      </trkpt>
      <trkpt lat="47.2796" lon="4.9886">
        <ele>284.726</ele>
        <time>2017-11-16T09:19:11Z</time>
      </trkpt>
      <trkpt lat="47.2797" lon="4.98847">
        <ele>285.412</ele>
        <time>2017-11-16T09:19:22Z</time>
      </trkpt>
      <trkpt lat="47.27978" lon="4.98835">
        <ele>285.666</ele>
        <time>2017-11-16T09:19:33Z</time>
      </trkpt>
      <trkpt lat="47.27988" lon="4.98823">
        <ele>285.783</ele>
        <time>2017-11-16T09:19:44Z</time>
      </trkpt>
      <trkpt lat="47.27997" lon="4.98813">
        <ele>286.263</ele>
        <time>2017-11-16T09:19:55Z</time>
      </trkpt>
      <trkpt lat="47.28005" lon="4.98805">
        <ele>286.411</ele>
        <time>2017-11-16T09:20:06Z</time>
      </trkpt>
      <trkpt lat="47.28013" lon="4.98797">
        <ele>285.719</ele>
        <time>2017-11-16T09:20:17Z</time>
      </trkpt>
      <trkpt lat="47.28022" lon="4.98785">
        <ele>284.72</ele>
        <time>2017-11-16T09:20:28Z</time>
      </trkpt>
      <trkpt lat="47.2803" lon="4.98778">
        <ele>286.198</ele>
        <time>2017-11-16T09:20:39Z</time>
      </trkpt>
      <trkpt lat="47.28038" lon="4.98767">
        <ele>286.148</ele>
        <time>2017-11-16T09:20:50Z</time>
      </trkpt>
      <trkpt lat="47.28047" lon="4.98752">
        <ele>285.674</ele>
        <time>2017-11-16T09:21:01Z</time>
      </trkpt>
      <trkpt lat="47.28057" lon="4.98738">
        <ele>286.093</ele>
        <time>2017-11-16T09:21:12Z</time>
      </trkpt>
      <trkpt lat="47.28063" lon="4.98725">
        <ele>284.968</ele>
        <time>2017-11-16T09:21:23Z</time>
      </trkpt>
      <trkpt lat="47.28072" lon="4.98713">
        <ele>286.445</ele>
        <time>2017-11-16T09:21:34Z</time>
      </trkpt>
      <trkpt lat="47.28078" lon="4.987">
        <ele>286.111</ele>
        <time>2017-11-16T09:21:45Z</time>
      </trkpt>
      <trkpt lat="47.28085" lon="4.98688">
        <ele>286.686</ele>
        <time>2017-11-16T09:21:56Z</time>
      </trkpt>
      <trkpt lat="47.28092" lon="4.98675">
        <ele>287.784</ele>
        <time>2017-11-16T09:22:07Z</time>
      </trkpt>
      <trkpt lat="47.28097" lon="4.98663">
        <ele>289.225</ele>
        <time>2017-11-16T09:22:18Z</time>
      </trkpt>
      <trkpt lat="47.28103" lon="4.98652">
        <ele>289.061</ele>
        <time>2017-11-16T09:22:29Z</time>
      </trkpt>
      <trkpt lat="47.28113" lon="4.98637">
        <ele>288.134</ele>
        <time>2017-11-16T09:22:40Z</time>
      </trkpt>
      <trkpt lat="47.28122" lon="4.98623">
        <ele>287.965</ele>
        <time>2017-11-16T09:22:51Z</time>
      </trkpt>
      <trkpt lat="47.28132" lon="4.98612">
        <ele>287.539</ele>
        <time>2017-11-16T09:23:02Z</time>
      </trkpt>
      <trkpt lat="47.28143" lon="4.9861">
        <ele>286.937</ele>
        <time>2017-11-16T09:23:13Z</time>
      </trkpt>
      <trkpt lat="47.28155" lon="4.98617">
        <ele>288.233</ele>
        <time>2017-11-16T09:23:24Z</time>
      </trkpt>
      <trkpt lat="47.28165" lon="4.98625">
        <ele>288.88</ele>
        <time>2017-11-16T09:23:35Z</time>
      </trkpt>
      <trkpt lat="47.28175" lon="4.9863">
        <ele>289.746</ele>
        <time>2017-11-16T09:23:46Z</time>
      </trkpt>
      <trkpt lat="47.28185" lon="4.98637">
        <ele>289.335</ele>
        <time>2017-11-16T09:23:57Z</time>
      </trkpt>
      <trkpt lat="47.28195" lon="4.98645">
        <ele>290.325</ele>
        <time>2017-11-16T09:24:08Z</time>
      </trkpt>
      <trkpt lat="47.28205" lon="4.98653">
        <ele>290.027</ele>
        <time>2017-11-16T09:24:19Z</time>
      </trkpt>
      <trkpt lat="47.28213" lon="4.98658">
        <ele>292.111</ele>
        <time>2017-11-16T09:24:30Z</time>
      </trkpt>
      <trkpt lat="47.28225" lon="4.98663">
        <ele>292.626</ele>
        <time>2017-11-16T09:24:41Z</time>
      </trkpt>
      <trkpt lat="47.28237" lon="4.98667">
        <ele>294.187</ele>
        <time>2017-11-16T09:24:52Z</time>
      </trkpt>
      <trkpt lat="47.28248" lon="4.98667">
        <ele>295.737</ele>
        <time>2017-11-16T09:25:03Z</time>
      </trkpt>
      <trkpt lat="47.2826" lon="4.98665">
        <ele>296.789</ele>
        <time>2017-11-16T09:25:14Z</time>
      </trkpt>
      <trkpt lat="47.28268" lon="4.98662">
        <ele>297.713</ele>
        <time>2017-11-16T09:25:25Z</time>
      </trkpt>
      <trkpt lat="47.28278" lon="4.9866">
        <ele>299.433</ele>
        <time>2017-11-16T09:25:36Z</time>
      </trkpt>
      <trkpt lat="47.28288" lon="4.98658">
        <ele>299.08</ele>
        <time>2017-11-16T09:25:47Z</time>
      </trkpt>
      <trkpt lat="47.283" lon="4.98655">
        <ele>300.352</ele>
        <time>2017-11-16T09:25:58Z</time>
      </trkpt>
      <trkpt lat="47.28312" lon="4.98657">
        <ele>301.513</ele>
        <time>2017-11-16T09:26:09Z</time>
      </trkpt>
      <trkpt lat="47.28322" lon="4.98653">
        <ele>302.434</ele>
        <time>2017-11-16T09:26:20Z</time>
      </trkpt>
      <trkpt lat="47.28333" lon="4.98652">
        <ele>301.847</ele>
        <time>2017-11-16T09:26:31Z</time>
      </trkpt>
      <trkpt lat="47.28343" lon="4.9865">
        <ele>302.25</ele>
        <time>2017-11-16T09:26:42Z</time>
      </trkpt>
      <trkpt lat="47.2835" lon="4.9865">
        <ele>303.278</ele>
        <time>2017-11-16T09:26:53Z</time>
      </trkpt>
      <trkpt lat="47.28358" lon="4.9865">
        <ele>304.724</ele>
        <time>2017-11-16T09:27:04Z</time>
      </trkpt>
      <trkpt lat="47.28362" lon="4.98648">
        <ele>305.977</ele>
        <time>2017-11-16T09:27:15Z</time>
      </trkpt>
      <trkpt lat="47.2837" lon="4.98648">
        <ele>308.515</ele>
        <time>2017-11-16T09:27:26Z</time>
      </trkpt>
      <trkpt lat="47.28375" lon="4.98648">
        <ele>309.541</ele>
        <time>2017-11-16T09:27:37Z</time>
      </trkpt>
      <trkpt lat="47.28382" lon="4.9865">
        <ele>311.04</ele>
        <time>2017-11-16T09:27:48Z</time>
      </trkpt>
      <trkpt lat="47.2839" lon="4.98648">
        <ele>312.562</ele>
        <time>2017-11-16T09:27:59Z</time>
      </trkpt>
      <trkpt lat="47.28397" lon="4.98648">
        <ele>314.035</ele>
        <time>2017-11-16T09:28:10Z</time>
      </trkpt>
      <trkpt lat="47.28405" lon="4.98647">
        <ele>316.477</ele>
        <time>2017-11-16T09:28:21Z</time>
      </trkpt>
      <trkpt lat="47.28413" lon="4.98642">
        <ele>318.063</ele>
        <time>2017-11-16T09:28:32Z</time>
      </trkpt>
      <trkpt lat="47.28423" lon="4.98637">
        <ele>320.235</ele>
        <time>2017-11-16T09:28:43Z</time>
      </trkpt>
      <trkpt lat="47.28427" lon="4.98635">
        <ele>321.476</ele>
        <time>2017-11-16T09:28:54Z</time>
      </trkpt>
      <trkpt lat="47.28438" lon="4.98627">
        <ele>321.248</ele>
        <time>2017-11-16T09:29:05Z</time>
      </trkpt>
      <trkpt lat="47.2845" lon="4.9862">
        <ele>322.61</ele>
        <time>2017-11-16T09:29:16Z</time>
      </trkpt>
      <trkpt lat="47.2846" lon="4.98618">
        <ele>325.461</ele>
        <time>2017-11-16T09:29:27Z</time>
      </trkpt>
      <trkpt lat="47.2847" lon="4.98618">
        <ele>328.396</ele>
        <time>2017-11-16T09:29:38Z</time>
      </trkpt>
      <trkpt lat="47.28482" lon="4.98622">
        <ele>328.311</ele>
        <time>2017-11-16T09:29:49Z</time>
      </trkpt>
      <trkpt lat="47.28493" lon="4.98623">
        <ele>329.84</ele>
        <time>2017-11-16T09:30:00Z</time>
      </trkpt>
      <trkpt lat="47.28502" lon="4.98625">
        <ele>331.323</ele>
        <time>2017-11-16T09:30:11Z</time>
      </trkpt>
      <trkpt lat="47.28513" lon="4.98628">
        <ele>331.125</ele>
        <time>2017-11-16T09:30:22Z</time>
      </trkpt>
      <trkpt lat="47.28523" lon="4.9863">
        <ele>331.66</ele>
        <time>2017-11-16T09:30:33Z</time>
      </trkpt>
      <trkpt lat="47.28523" lon="4.9863">
        <ele>331.66</ele>
        <time>2017-11-16T09:30:44Z</time>
      </trkpt>
      <trkpt lat="47.28523" lon="4.9863">
        <ele>331.66</ele>
        <time>2017-11-16T09:30:55Z</time>
      </trkpt>
      <trkpt lat="47.28523" lon="4.9863">
        <ele>331.66</ele>
        <time>2017-11-16T09:31:06Z</time>
      </trkpt>
      <trkpt lat="47.28523" lon="4.9863">
        <ele>331.663</ele>
        <time>2017-11-16T09:31:17Z</time>
      </trkpt>
      <trkpt lat="47.28523" lon="4.9863">
        <ele>331.663</ele>
        <time>2017-11-16T09:31:28Z</time>
      </trkpt>
      <trkpt lat="47.28523" lon="4.9863">
        <ele>331.663</ele>
        <time>2017-11-16T09:31:39Z</time>
      </trkpt>
      <trkpt lat="47.28523" lon="4.9863">
        <ele>331.663</ele>
        <time>2017-11-16T09:31:50Z</time>
      </trkpt>
      <trkpt lat="47.28523" lon="4.9863">
        <ele>331.663</ele>
        <time>2017-11-16T09:32:01Z</time>
      </trkpt>
      <trkpt lat="47.28523" lon="4.9863">
        <ele>331.695</ele>
        <time>2017-11-16T09:32:12Z</time>
      </trkpt>
      <trkpt lat="47.28523" lon="4.9863">
        <ele>331.695</ele>
        <time>2017-11-16T09:32:23Z</time>
      </trkpt>
      <trkpt lat="47.28527" lon="4.98633">
        <ele>332.444</ele>
        <time>2017-11-16T09:32:34Z</time>
      </trkpt>
      <trkpt lat="47.28533" lon="4.98637">
        <ele>332.829</ele>
        <time>2017-11-16T09:32:45Z</time>
      </trkpt>
      <trkpt lat="47.28543" lon="4.98642">
        <ele>333.426</ele>
        <time>2017-11-16T09:32:56Z</time>
      </trkpt>
      <trkpt lat="47.28552" lon="4.98647">
        <ele>333.244</ele>
        <time>2017-11-16T09:33:07Z</time>
      </trkpt>
      <trkpt lat="47.28562" lon="4.98652">
        <ele>333.891</ele>
        <time>2017-11-16T09:33:18Z</time>
      </trkpt>
      <trkpt lat="47.2857" lon="4.98653">
        <ele>334.657</ele>
        <time>2017-11-16T09:33:29Z</time>
      </trkpt>
      <trkpt lat="47.28578" lon="4.98657">
        <ele>335.376</ele>
        <time>2017-11-16T09:33:40Z</time>
      </trkpt>
      <trkpt lat="47.28588" lon="4.98665">
        <ele>336.451</ele>
        <time>2017-11-16T09:33:51Z</time>
      </trkpt>
      <trkpt lat="47.28598" lon="4.98668">
        <ele>336.866</ele>
        <time>2017-11-16T09:34:02Z</time>
      </trkpt>
      <trkpt lat="47.28608" lon="4.9867">
        <ele>336.336</ele>
        <time>2017-11-16T09:34:13Z</time>
      </trkpt>
      <trkpt lat="47.2862" lon="4.98673">
        <ele>337.461</ele>
        <time>2017-11-16T09:34:24Z</time>
      </trkpt>
      <trkpt lat="47.28628" lon="4.98675">
        <ele>339.043</ele>
        <time>2017-11-16T09:34:35Z</time>
      </trkpt>
      <trkpt lat="47.28638" lon="4.98675">
        <ele>340.35</ele>
        <time>2017-11-16T09:34:46Z</time>
      </trkpt>
      <trkpt lat="47.2865" lon="4.98675">
        <ele>342.763</ele>
        <time>2017-11-16T09:34:57Z</time>
      </trkpt>
      <trkpt lat="47.28653" lon="4.98673">
        <ele>344.309</ele>
        <time>2017-11-16T09:35:08Z</time>
      </trkpt>
      <trkpt lat="47.28657" lon="4.98672">
        <ele>343.691</ele>
        <time>2017-11-16T09:35:19Z</time>
      </trkpt>
      <trkpt lat="47.28663" lon="4.98668">
        <ele>343.41</ele>
        <time>2017-11-16T09:35:30Z</time>
      </trkpt>
      <trkpt lat="47.28668" lon="4.98667">
        <ele>342.804</ele>
        <time>2017-11-16T09:35:41Z</time>
      </trkpt>
      <trkpt lat="47.28675" lon="4.98663">
        <ele>342.946</ele>
        <time>2017-11-16T09:35:52Z</time>
      </trkpt>
      <trkpt lat="47.28688" lon="4.98655">
        <ele>342.929</ele>
        <time>2017-11-16T09:36:03Z</time>
      </trkpt>
      <trkpt lat="47.28697" lon="4.98652">
        <ele>344.965</ele>
        <time>2017-11-16T09:36:14Z</time>
      </trkpt>
      <trkpt lat="47.28708" lon="4.98645">
        <ele>346.071</ele>
        <time>2017-11-16T09:36:25Z</time>
      </trkpt>
      <trkpt lat="47.28717" lon="4.98642">
        <ele>347.639</ele>
        <time>2017-11-16T09:36:36Z</time>
      </trkpt>
      <trkpt lat="47.28728" lon="4.9864">
        <ele>348.471</ele>
        <time>2017-11-16T09:36:47Z</time>
      </trkpt>
      <trkpt lat="47.28738" lon="4.98633">
        <ele>348.319</ele>
        <time>2017-11-16T09:36:58Z</time>
      </trkpt>
      <trkpt lat="47.28743" lon="4.98627">
        <ele>349.889</ele>
        <time>2017-11-16T09:37:09Z</time>
      </trkpt>
      <trkpt lat="47.2875" lon="4.9862">
        <ele>352.332</ele>
        <time>2017-11-16T09:37:20Z</time>
      </trkpt>
      <trkpt lat="47.28757" lon="4.98617">
        <ele>354.042</ele>
        <time>2017-11-16T09:37:31Z</time>
      </trkpt>
      <trkpt lat="47.28765" lon="4.98612">
        <ele>355.295</ele>
        <time>2017-11-16T09:37:42Z</time>
      </trkpt>
      <trkpt lat="47.28772" lon="4.98608">
        <ele>357.194</ele>
        <time>2017-11-16T09:37:53Z</time>
      </trkpt>
      <trkpt lat="47.2878" lon="4.98605">
        <ele>355.993</ele>
        <time>2017-11-16T09:38:04Z</time>
      </trkpt>
      <trkpt lat="47.28793" lon="4.98598">
        <ele>357.802</ele>
        <time>2017-11-16T09:38:15Z</time>
      </trkpt>
      <trkpt lat="47.28802" lon="4.98593">
        <ele>357.7</ele>
        <time>2017-11-16T09:38:26Z</time>
      </trkpt>
      <trkpt lat="47.28808" lon="4.9859">
        <ele>359.658</ele>
        <time>2017-11-16T09:38:37Z</time>
      </trkpt>
      <trkpt lat="47.28818" lon="4.98587">
        <ele>361.463</ele>
        <time>2017-11-16T09:38:48Z</time>
      </trkpt>
      <trkpt lat="47.28828" lon="4.98583">
        <ele>364.174</ele>
        <time>2017-11-16T09:38:59Z</time>
      </trkpt>
      <trkpt lat="47.28833" lon="4.98582">
        <ele>364.434</ele>
        <time>2017-11-16T09:39:10Z</time>
      </trkpt>
      <trkpt lat="47.28847" lon="4.98573">
        <ele>363.476</ele>
        <time>2017-11-16T09:39:21Z</time>
      </trkpt>
      <trkpt lat="47.28857" lon="4.98567">
        <ele>363.367</ele>
        <time>2017-11-16T09:39:32Z</time>
      </trkpt>
      <trkpt lat="47.28865" lon="4.9856">
        <ele>365.335</ele>
        <time>2017-11-16T09:39:43Z</time>
      </trkpt>
      <trkpt lat="47.28873" lon="4.98555">
        <ele>366.157</ele>
        <time>2017-11-16T09:39:54Z</time>
      </trkpt>
      <trkpt lat="47.28882" lon="4.9855">
        <ele>367.363</ele>
        <time>2017-11-16T09:40:05Z</time>
      </trkpt>
      <trkpt lat="47.28885" lon="4.98548">
        <ele>368.294</ele>
        <time>2017-11-16T09:40:16Z</time>
      </trkpt>
      <trkpt lat="47.28887" lon="4.98547">
        <ele>368.191</ele>
        <time>2017-11-16T09:40:27Z</time>
      </trkpt>
      <trkpt lat="47.28895" lon="4.98542">
        <ele>368.735</ele>
        <time>2017-11-16T09:40:38Z</time>
      </trkpt>
      <trkpt lat="47.28905" lon="4.98533">
        <ele>370.452</ele>
        <time>2017-11-16T09:40:49Z</time>
      </trkpt>
      <trkpt lat="47.28917" lon="4.98528">
        <ele>371.106</ele>
        <time>2017-11-16T09:41:00Z</time>
      </trkpt>
      <trkpt lat="47.28917" lon="4.98515">
        <ele>372.443</ele>
        <time>2017-11-16T09:41:11Z</time>
      </trkpt>
      <trkpt lat="47.28917" lon="4.98502">
        <ele>373.049</ele>
        <time>2017-11-16T09:41:22Z</time>
      </trkpt>
      <trkpt lat="47.28917" lon="4.98485">
        <ele>373.52</ele>
        <time>2017-11-16T09:41:33Z</time>
      </trkpt>
      <trkpt lat="47.28917" lon="4.98472">
        <ele>374.449</ele>
        <time>2017-11-16T09:41:44Z</time>
      </trkpt>
      <trkpt lat="47.28917" lon="4.98457">
        <ele>374.848</ele>
        <time>2017-11-16T09:41:55Z</time>
      </trkpt>
      <trkpt lat="47.28917" lon="4.9844">
        <ele>375.382</ele>
        <time>2017-11-16T09:42:06Z</time>
      </trkpt>
      <trkpt lat="47.28917" lon="4.98425">
        <ele>376.271</ele>
        <time>2017-11-16T09:42:17Z</time>
      </trkpt>
      <trkpt lat="47.28913" lon="4.98407">
        <ele>376.353</ele>
        <time>2017-11-16T09:42:28Z</time>
      </trkpt>
      <trkpt lat="47.28912" lon="4.98392">
        <ele>378.627</ele>
        <time>2017-11-16T09:42:39Z</time>
      </trkpt>
      <trkpt lat="47.2891" lon="4.9838">
        <ele>379.632</ele>
        <time>2017-11-16T09:42:50Z</time>
      </trkpt>
      <trkpt lat="47.28905" lon="4.98365">
        <ele>381.707</ele>
        <time>2017-11-16T09:43:01Z</time>
      </trkpt>
      <trkpt lat="47.28902" lon="4.98353">
        <ele>383.301</ele>
        <time>2017-11-16T09:43:12Z</time>
      </trkpt>
      <trkpt lat="47.28897" lon="4.98338">
        <ele>382.779</ele>
        <time>2017-11-16T09:43:23Z</time>
      </trkpt>
      <trkpt lat="47.28893" lon="4.98325">
        <ele>382.629</ele>
        <time>2017-11-16T09:43:34Z</time>
      </trkpt>
      <trkpt lat="47.28892" lon="4.98307">
        <ele>383.617</ele>
        <time>2017-11-16T09:43:45Z</time>
      </trkpt>
      <trkpt lat="47.28893" lon="4.9829">
        <ele>384.571</ele>
        <time>2017-11-16T09:43:56Z</time>
      </trkpt>
      <trkpt lat="47.28895" lon="4.98273">
        <ele>385.221</ele>
        <time>2017-11-16T09:44:07Z</time>
      </trkpt>
      <trkpt lat="47.28895" lon="4.98258">
        <ele>386.624</ele>
        <time>2017-11-16T09:44:18Z</time>
      </trkpt>
      <trkpt lat="47.28897" lon="4.9824">
        <ele>387.029</ele>
        <time>2017-11-16T09:44:29Z</time>
      </trkpt>
      <trkpt lat="47.28898" lon="4.98225">
        <ele>386.809</ele>
        <time>2017-11-16T09:44:40Z</time>
      </trkpt>
      <trkpt lat="47.289" lon="4.98207">
        <ele>386.605</ele>
        <time>2017-11-16T09:44:51Z</time>
      </trkpt>
      <trkpt lat="47.28902" lon="4.9819">
        <ele>387.214</ele>
        <time>2017-11-16T09:45:02Z</time>
      </trkpt>
      <trkpt lat="47.28907" lon="4.98182">
        <ele>386.315</ele>
        <time>2017-11-16T09:45:13Z</time>
      </trkpt>
      <trkpt lat="47.28915" lon="4.98165">
        <ele>386.729</ele>
        <time>2017-11-16T09:45:24Z</time>
      </trkpt>
      <trkpt lat="47.2892" lon="4.98152">
        <ele>385.829</ele>
        <time>2017-11-16T09:45:35Z</time>
      </trkpt>
      <trkpt lat="47.2893" lon="4.98145">
        <ele>386.092</ele>
        <time>2017-11-16T09:45:46Z</time>
      </trkpt>
      <trkpt lat="47.28943" lon="4.98138">
        <ele>385.028</ele>
        <time>2017-11-16T09:45:57Z</time>
      </trkpt>
      <trkpt lat="47.28953" lon="4.98138">
        <ele>385.123</ele>
        <time>2017-11-16T09:46:08Z</time>
      </trkpt>
      <trkpt lat="47.28965" lon="4.9814">
        <ele>385.189</ele>
        <time>2017-11-16T09:46:19Z</time>
      </trkpt>
      <trkpt lat="47.28978" lon="4.98137">
        <ele>384.151</ele>
        <time>2017-11-16T09:46:30Z</time>
      </trkpt>
      <trkpt lat="47.28988" lon="4.98137">
        <ele>384.004</ele>
        <time>2017-11-16T09:46:41Z</time>
      </trkpt>
      <trkpt lat="47.29" lon="4.9814">
        <ele>384.23</ele>
        <time>2017-11-16T09:46:52Z</time>
      </trkpt>
      <trkpt lat="47.29008" lon="4.98142">
        <ele>386.842</ele>
        <time>2017-11-16T09:47:03Z</time>
      </trkpt>
      <trkpt lat="47.29015" lon="4.98148">
        <ele>389.021</ele>
        <time>2017-11-16T09:47:14Z</time>
      </trkpt>
      <trkpt lat="47.29023" lon="4.98157">
        <ele>387.359</ele>
        <time>2017-11-16T09:47:25Z</time>
      </trkpt>
      <trkpt lat="47.29035" lon="4.98165">
        <ele>389.045</ele>
        <time>2017-11-16T09:47:36Z</time>
      </trkpt>
      <trkpt lat="47.29045" lon="4.98168">
        <ele>389.482</ele>
        <time>2017-11-16T09:47:47Z</time>
      </trkpt>
      <trkpt lat="47.29057" lon="4.98177">
        <ele>389.967</ele>
        <time>2017-11-16T09:47:58Z</time>
      </trkpt>
      <trkpt lat="47.29068" lon="4.98182">
        <ele>390.662</ele>
        <time>2017-11-16T09:48:09Z</time>
      </trkpt>
      <trkpt lat="47.29077" lon="4.98185">
        <ele>392.652</ele>
        <time>2017-11-16T09:48:20Z</time>
      </trkpt>
      <trkpt lat="47.29088" lon="4.98192">
        <ele>393.172</ele>
        <time>2017-11-16T09:48:31Z</time>
      </trkpt>
      <trkpt lat="47.29097" lon="4.98197">
        <ele>390.507</ele>
        <time>2017-11-16T09:48:42Z</time>
      </trkpt>
      <trkpt lat="47.2911" lon="4.98205">
        <ele>389.09</ele>
        <time>2017-11-16T09:48:53Z</time>
      </trkpt>
      <trkpt lat="47.29123" lon="4.98208">
        <ele>388.42</ele>
        <time>2017-11-16T09:49:04Z</time>
      </trkpt>
      <trkpt lat="47.29137" lon="4.98212">
        <ele>388.713</ele>
        <time>2017-11-16T09:49:15Z</time>
      </trkpt>
      <trkpt lat="47.29148" lon="4.9822">
        <ele>386.567</ele>
        <time>2017-11-16T09:49:26Z</time>
      </trkpt>
      <trkpt lat="47.29162" lon="4.9823">
        <ele>388.126</ele>
        <time>2017-11-16T09:49:37Z</time>
      </trkpt>
      <trkpt lat="47.29173" lon="4.98237">
        <ele>389.049</ele>
        <time>2017-11-16T09:49:48Z</time>
      </trkpt>
      <trkpt lat="47.29187" lon="4.98245">
        <ele>388.127</ele>
        <time>2017-11-16T09:49:59Z</time>
      </trkpt>
      <trkpt lat="47.29195" lon="4.98248">
        <ele>388.314</ele>
        <time>2017-11-16T09:50:10Z</time>
      </trkpt>
      <trkpt lat="47.29205" lon="4.98253">
        <ele>389.048</ele>
        <time>2017-11-16T09:50:21Z</time>
      </trkpt>
      <trkpt lat="47.29217" lon="4.98262">
        <ele>388.032</ele>
        <time>2017-11-16T09:50:32Z</time>
      </trkpt>
      <trkpt lat="47.29227" lon="4.9827">
        <ele>387.603</ele>
        <time>2017-11-16T09:50:43Z</time>
      </trkpt>
      <trkpt lat="47.2924" lon="4.9828">
        <ele>386.447</ele>
        <time>2017-11-16T09:50:54Z</time>
      </trkpt>
      <trkpt lat="47.29252" lon="4.9829">
        <ele>387.58</ele>
        <time>2017-11-16T09:51:05Z</time>
      </trkpt>
      <trkpt lat="47.2926" lon="4.98297">
        <ele>388.048</ele>
        <time>2017-11-16T09:51:16Z</time>
      </trkpt>
      <trkpt lat="47.2927" lon="4.98302">
        <ele>386.444</ele>
        <time>2017-11-16T09:51:27Z</time>
      </trkpt>
      <trkpt lat="47.29277" lon="4.98305">
        <ele>386.316</ele>
        <time>2017-11-16T09:51:38Z</time>
      </trkpt>
      <trkpt lat="47.29287" lon="4.9831">
        <ele>385.916</ele>
        <time>2017-11-16T09:51:49Z</time>
      </trkpt>
      <trkpt lat="47.29298" lon="4.98313">
        <ele>384.72</ele>
        <time>2017-11-16T09:52:00Z</time>
      </trkpt>
      <trkpt lat="47.29308" lon="4.98322">
        <ele>385.062</ele>
        <time>2017-11-16T09:52:11Z</time>
      </trkpt>
      <trkpt lat="47.2932" lon="4.98327">
        <ele>385.334</ele>
        <time>2017-11-16T09:52:22Z</time>
      </trkpt>
      <trkpt lat="47.29332" lon="4.98328">
        <ele>386.069</ele>
        <time>2017-11-16T09:52:33Z</time>
      </trkpt>
      <trkpt lat="47.29343" lon="4.98332">
        <ele>386.933</ele>
        <time>2017-11-16T09:52:44Z</time>
      </trkpt>
      <trkpt lat="47.29357" lon="4.98333">
        <ele>385.02</ele>
        <time>2017-11-16T09:52:55Z</time>
      </trkpt>
      <trkpt lat="47.29368" lon="4.98337">
        <ele>384.141</ele>
        <time>2017-11-16T09:53:06Z</time>
      </trkpt>
      <trkpt lat="47.29377" lon="4.98342">
        <ele>385.522</ele>
        <time>2017-11-16T09:53:17Z</time>
      </trkpt>
      <trkpt lat="47.29387" lon="4.9835">
        <ele>386.728</ele>
        <time>2017-11-16T09:53:28Z</time>
      </trkpt>
      <trkpt lat="47.29393" lon="4.9836">
        <ele>386.025</ele>
        <time>2017-11-16T09:53:39Z</time>
      </trkpt>
      <trkpt lat="47.29402" lon="4.98373">
        <ele>385.065</ele>
        <time>2017-11-16T09:53:50Z</time>
      </trkpt>
      <trkpt lat="47.29413" lon="4.98385">
        <ele>384.754</ele>
        <time>2017-11-16T09:54:01Z</time>
      </trkpt>
      <trkpt lat="47.29423" lon="4.98397">
        <ele>384.885</ele>
        <time>2017-11-16T09:54:12Z</time>
      </trkpt>
      <trkpt lat="47.29437" lon="4.98407">
        <ele>383.489</ele>
        <time>2017-11-16T09:54:23Z</time>
      </trkpt>
      <trkpt lat="47.29445" lon="4.98415">
        <ele>383.272</ele>
        <time>2017-11-16T09:54:34Z</time>
      </trkpt>
      <trkpt lat="47.29455" lon="4.98423">
        <ele>384.196</ele>
        <time>2017-11-16T09:54:45Z</time>
      </trkpt>
      <trkpt lat="47.29465" lon="4.98435">
        <ele>384.605</ele>
        <time>2017-11-16T09:54:56Z</time>
      </trkpt>
      <trkpt lat="47.29475" lon="4.98445">
        <ele>384.94</ele>
        <time>2017-11-16T09:55:07Z</time>
      </trkpt>
      <trkpt lat="47.29487" lon="4.98452">
        <ele>386.321</ele>
        <time>2017-11-16T09:55:18Z</time>
      </trkpt>
      <trkpt lat="47.29498" lon="4.98457">
        <ele>386.719</ele>
        <time>2017-11-16T09:55:29Z</time>
      </trkpt>
      <trkpt lat="47.29508" lon="4.98467">
        <ele>385.904</ele>
        <time>2017-11-16T09:55:40Z</time>
      </trkpt>
      <trkpt lat="47.29513" lon="4.9848">
        <ele>385.439</ele>
        <time>2017-11-16T09:55:51Z</time>
      </trkpt>
      <trkpt lat="47.29522" lon="4.98495">
        <ele>385.819</ele>
        <time>2017-11-16T09:56:02Z</time>
      </trkpt>
      <trkpt lat="47.2953" lon="4.98505">
        <ele>386.193</ele>
        <time>2017-11-16T09:56:13Z</time>
      </trkpt>
      <trkpt lat="47.2953" lon="4.98507">
        <ele>386.011</ele>
        <time>2017-11-16T09:56:24Z</time>
      </trkpt>
      <trkpt lat="47.29537" lon="4.98513">
        <ele>385.839</ele>
        <time>2017-11-16T09:56:35Z</time>
      </trkpt>
      <trkpt lat="47.29542" lon="4.98523">
        <ele>386.918</ele>
        <time>2017-11-16T09:56:46Z</time>
      </trkpt>
      <trkpt lat="47.2955" lon="4.98538">
        <ele>386.969</ele>
        <time>2017-11-16T09:56:57Z</time>
      </trkpt>
      <trkpt lat="47.29558" lon="4.98552">
        <ele>387.192</ele>
        <time>2017-11-16T09:57:08Z</time>
      </trkpt>
      <trkpt lat="47.29565" lon="4.98563">
        <ele>386.366</ele>
        <time>2017-11-16T09:57:19Z</time>
      </trkpt>
      <trkpt lat="47.29573" lon="4.98577">
        <ele>386.776</ele>
        <time>2017-11-16T09:57:30Z</time>
      </trkpt>
      <trkpt lat="47.29578" lon="4.98585">
        <ele>386.295</ele>
        <time>2017-11-16T09:57:41Z</time>
      </trkpt>
      <trkpt lat="47.2959" lon="4.98598">
        <ele>386.451</ele>
        <time>2017-11-16T09:57:52Z</time>
      </trkpt>
      <trkpt lat="47.29597" lon="4.98612">
        <ele>386.624</ele>
        <time>2017-11-16T09:58:03Z</time>
      </trkpt>
      <trkpt lat="47.29603" lon="4.98628">
        <ele>386.477</ele>
        <time>2017-11-16T09:58:14Z</time>
      </trkpt>
      <trkpt lat="47.29603" lon="4.98628">
        <ele>386.477</ele>
        <time>2017-11-16T09:58:25Z</time>
      </trkpt>
      <trkpt lat="47.29603" lon="4.98628">
        <ele>386.477</ele>
        <time>2017-11-16T09:58:36Z</time>
      </trkpt>
      <trkpt lat="47.29603" lon="4.98628">
        <ele>386.477</ele>
        <time>2017-11-16T09:58:47Z</time>
      </trkpt>
      <trkpt lat="47.29603" lon="4.98628">
        <ele>386.477</ele>
        <time>2017-11-16T09:58:58Z</time>
      </trkpt>
      <trkpt lat="47.29605" lon="4.9863">
        <ele>386.621</ele>
        <time>2017-11-16T09:59:09Z</time>
      </trkpt>
      <trkpt lat="47.29608" lon="4.98638">
        <ele>387.144</ele>
        <time>2017-11-16T09:59:20Z</time>
      </trkpt>
      <trkpt lat="47.29613" lon="4.98653">
        <ele>387.781</ele>
        <time>2017-11-16T09:59:31Z</time>
      </trkpt>
      <trkpt lat="47.29618" lon="4.98663">
        <ele>389.395</ele>
        <time>2017-11-16T09:59:42Z</time>
      </trkpt>
      <trkpt lat="47.29623" lon="4.9868">
        <ele>389.229</ele>
        <time>2017-11-16T09:59:53Z</time>
      </trkpt>
      <trkpt lat="47.2963" lon="4.98693">
        <ele>389.175</ele>
        <time>2017-11-16T10:00:04Z</time>
      </trkpt>
      <trkpt lat="47.29633" lon="4.98713">
        <ele>390.302</ele>
        <time>2017-11-16T10:00:15Z</time>
      </trkpt>
      <trkpt lat="47.29633" lon="4.98735">
        <ele>390.334</ele>
        <time>2017-11-16T10:00:26Z</time>
      </trkpt>
      <trkpt lat="47.29638" lon="4.98755">
        <ele>390.178</ele>
        <time>2017-11-16T10:00:37Z</time>
      </trkpt>
      <trkpt lat="47.29643" lon="4.98773">
        <ele>389.577</ele>
        <time>2017-11-16T10:00:48Z</time>
      </trkpt>
      <trkpt lat="47.29648" lon="4.9879">
        <ele>389.325</ele>
        <time>2017-11-16T10:00:59Z</time>
      </trkpt>
      <trkpt lat="47.29655" lon="4.98805">
        <ele>389.311</ele>
        <time>2017-11-16T10:01:10Z</time>
      </trkpt>
      <trkpt lat="47.29658" lon="4.98818">
        <ele>388.714</ele>
        <time>2017-11-16T10:01:21Z</time>
      </trkpt>
      <trkpt lat="47.29663" lon="4.98838">
        <ele>388.878</ele>
        <time>2017-11-16T10:01:32Z</time>
      </trkpt>
      <trkpt lat="47.29668" lon="4.98857">
        <ele>389.758</ele>
        <time>2017-11-16T10:01:43Z</time>
      </trkpt>
      <trkpt lat="47.29672" lon="4.98873">
        <ele>389.476</ele>
        <time>2017-11-16T10:01:54Z</time>
      </trkpt>
      <trkpt lat="47.29677" lon="4.9889">
        <ele>389.452</ele>
        <time>2017-11-16T10:02:05Z</time>
      </trkpt>
      <trkpt lat="47.29683" lon="4.98907">
        <ele>388.549</ele>
        <time>2017-11-16T10:02:16Z</time>
      </trkpt>
      <trkpt lat="47.29688" lon="4.9892">
        <ele>387.433</ele>
        <time>2017-11-16T10:02:27Z</time>
      </trkpt>
      <trkpt lat="47.29693" lon="4.98937">
        <ele>386.818</ele>
        <time>2017-11-16T10:02:38Z</time>
      </trkpt>
      <trkpt lat="47.29697" lon="4.98952">
        <ele>387.255</ele>
        <time>2017-11-16T10:02:49Z</time>
      </trkpt>
      <trkpt lat="47.29698" lon="4.98958">
        <ele>387.002</ele>
        <time>2017-11-16T10:03:00Z</time>
      </trkpt>
      <trkpt lat="47.29698" lon="4.98958">
        <ele>387.002</ele>
        <time>2017-11-16T10:03:11Z</time>
      </trkpt>
      <trkpt lat="47.29698" lon="4.98958">
        <ele>387.108</ele>
        <time>2017-11-16T10:03:22Z</time>
      </trkpt>
      <trkpt lat="47.29698" lon="4.98958">
        <ele>387.108</ele>
        <time>2017-11-16T10:03:33Z</time>
      </trkpt>
      <trkpt lat="47.29698" lon="4.98958">
        <ele>387.108</ele>
        <time>2017-11-16T10:03:44Z</time>
      </trkpt>
      <trkpt lat="47.29698" lon="4.98958">
        <ele>387.108</ele>
        <time>2017-11-16T10:03:55Z</time>
      </trkpt>
      <trkpt lat="47.297" lon="4.9896">
        <ele>387.45</ele>
        <time>2017-11-16T10:04:06Z</time>
      </trkpt>
      <trkpt lat="47.297" lon="4.98968">
        <ele>386.901</ele>
        <time>2017-11-16T10:04:17Z</time>
      </trkpt>
      <trkpt lat="47.29705" lon="4.98987">
        <ele>386.007</ele>
        <time>2017-11-16T10:04:28Z</time>
      </trkpt>
      <trkpt lat="47.2971" lon="4.98997">
        <ele>386.194</ele>
        <time>2017-11-16T10:04:39Z</time>
      </trkpt>
      <trkpt lat="47.29717" lon="4.99003">
        <ele>386.514</ele>
        <time>2017-11-16T10:04:50Z</time>
      </trkpt>
      <trkpt lat="47.2972" lon="4.9901">
        <ele>386.703</ele>
        <time>2017-11-16T10:05:01Z</time>
      </trkpt>
      <trkpt lat="47.29723" lon="4.99022">
        <ele>388.515</ele>
        <time>2017-11-16T10:05:12Z</time>
      </trkpt>
      <trkpt lat="47.29728" lon="4.99033">
        <ele>389.514</ele>
        <time>2017-11-16T10:05:23Z</time>
      </trkpt>
      <trkpt lat="47.29737" lon="4.9904">
        <ele>391.603</ele>
        <time>2017-11-16T10:05:34Z</time>
      </trkpt>
      <trkpt lat="47.29743" lon="4.99047">
        <ele>394.527</ele>
        <time>2017-11-16T10:05:45Z</time>
      </trkpt>
      <trkpt lat="47.29748" lon="4.9906">
        <ele>395.154</ele>
        <time>2017-11-16T10:05:56Z</time>
      </trkpt>
      <trkpt lat="47.29757" lon="4.99075">
        <ele>397.018</ele>
        <time>2017-11-16T10:06:07Z</time>
      </trkpt>
      <trkpt lat="47.29763" lon="4.99085">
        <ele>398.389</ele>
        <time>2017-11-16T10:06:18Z</time>
      </trkpt>
      <trkpt lat="47.29763" lon="4.99095">
        <ele>397.808</ele>
        <time>2017-11-16T10:06:29Z</time>
      </trkpt>
      <trkpt lat="47.29763" lon="4.99103">
        <ele>396.102</ele>
        <time>2017-11-16T10:06:40Z</time>
      </trkpt>
      <trkpt lat="47.29762" lon="4.99113">
        <ele>397.951</ele>
        <time>2017-11-16T10:06:51Z</time>
      </trkpt>
      <trkpt lat="47.29763" lon="4.99128">
        <ele>397.757</ele>
        <time>2017-11-16T10:07:02Z</time>
      </trkpt>
      <trkpt lat="47.29762" lon="4.99135">
        <ele>399.065</ele>
        <time>2017-11-16T10:07:13Z</time>
      </trkpt>
      <trkpt lat="47.29765" lon="4.99147">
        <ele>399.118</ele>
        <time>2017-11-16T10:07:24Z</time>
      </trkpt>
      <trkpt lat="47.2977" lon="4.99165">
        <ele>400.037</ele>
        <time>2017-11-16T10:07:35Z</time>
      </trkpt>
      <trkpt lat="47.29778" lon="4.99182">
        <ele>397.615</ele>
        <time>2017-11-16T10:07:46Z</time>
      </trkpt>
      <trkpt lat="47.29785" lon="4.9919">
        <ele>401.459</ele>
        <time>2017-11-16T10:07:57Z</time>
      </trkpt>
      <trkpt lat="47.29793" lon="4.99205">
        <ele>399.099</ele>
        <time>2017-11-16T10:08:08Z</time>
      </trkpt>
      <trkpt lat="47.29802" lon="4.99222">
        <ele>397.643</ele>
        <time>2017-11-16T10:08:19Z</time>
      </trkpt>
      <trkpt lat="47.29812" lon="4.99237">
        <ele>398.204</ele>
        <time>2017-11-16T10:08:30Z</time>
      </trkpt>
      <trkpt lat="47.29818" lon="4.99247">
        <ele>398.705</ele>
        <time>2017-11-16T10:08:41Z</time>
      </trkpt>
      <trkpt lat="47.2983" lon="4.99257">
        <ele>399.227</ele>
        <time>2017-11-16T10:08:52Z</time>
      </trkpt>
      <trkpt lat="47.2984" lon="4.99267">
        <ele>401.54</ele>
        <time>2017-11-16T10:09:03Z</time>
      </trkpt>
      <trkpt lat="47.29852" lon="4.99273">
        <ele>399.836</ele>
        <time>2017-11-16T10:09:14Z</time>
      </trkpt>
      <trkpt lat="47.29862" lon="4.9928">
        <ele>399.359</ele>
        <time>2017-11-16T10:09:25Z</time>
      </trkpt>
      <trkpt lat="47.29872" lon="4.99285">
        <ele>398.42</ele>
        <time>2017-11-16T10:09:36Z</time>
      </trkpt>
      <trkpt lat="47.2988" lon="4.99283">
        <ele>397.851</ele>
        <time>2017-11-16T10:09:47Z</time>
      </trkpt>
      <trkpt lat="47.29882" lon="4.99283">
        <ele>398.325</ele>
        <time>2017-11-16T10:09:58Z</time>
      </trkpt>
      <trkpt lat="47.29882" lon="4.99283">
        <ele>398.325</ele>
        <time>2017-11-16T10:10:09Z</time>
      </trkpt>
      <trkpt lat="47.29882" lon="4.99283">
        <ele>398.422</ele>
        <time>2017-11-16T10:10:20Z</time>
      </trkpt>
      <trkpt lat="47.29882" lon="4.99283">
        <ele>398.422</ele>
        <time>2017-11-16T10:10:31Z</time>
      </trkpt>
      <trkpt lat="47.29887" lon="4.9928">
        <ele>397.472</ele>
        <time>2017-11-16T10:10:42Z</time>
      </trkpt>
      <trkpt lat="47.29898" lon="4.99275">
        <ele>395.135</ele>
        <time>2017-11-16T10:10:53Z</time>
      </trkpt>
      <trkpt lat="47.29908" lon="4.99275">
        <ele>395.154</ele>
        <time>2017-11-16T10:11:04Z</time>
      </trkpt>
      <trkpt lat="47.29918" lon="4.99275">
        <ele>393.522</ele>
        <time>2017-11-16T10:11:15Z</time>
      </trkpt>
      <trkpt lat="47.29925" lon="4.99275">
        <ele>394.696</ele>
        <time>2017-11-16T10:11:26Z</time>
      </trkpt>
      <trkpt lat="47.29935" lon="4.99268">
        <ele>391.974</ele>
        <time>2017-11-16T10:11:37Z</time>
      </trkpt>
      <trkpt lat="47.29945" lon="4.99265">
        <ele>391.265</ele>
        <time>2017-11-16T10:11:48Z</time>
      </trkpt>
      <trkpt lat="47.29953" lon="4.99263">
        <ele>391.477</ele>
        <time>2017-11-16T10:11:59Z</time>
      </trkpt>
      <trkpt lat="47.29965" lon="4.99268">
        <ele>390.8</ele>
        <time>2017-11-16T10:12:10Z</time>
      </trkpt>
      <trkpt lat="47.29973" lon="4.99272">
        <ele>391.905</ele>
        <time>2017-11-16T10:12:21Z</time>
      </trkpt>
      <trkpt lat="47.29982" lon="4.99273">
        <ele>392.736</ele>
        <time>2017-11-16T10:12:32Z</time>
      </trkpt>
      <trkpt lat="47.29992" lon="4.99278">
        <ele>393.332</ele>
        <time>2017-11-16T10:12:43Z</time>
      </trkpt>
      <trkpt lat="47.30002" lon="4.99285">
        <ele>392.771</ele>
        <time>2017-11-16T10:12:54Z</time>
      </trkpt>
      <trkpt lat="47.30008" lon="4.99288">
        <ele>392.604</ele>
        <time>2017-11-16T10:13:05Z</time>
      </trkpt>
      <trkpt lat="47.30012" lon="4.9929">
        <ele>392.338</ele>
        <time>2017-11-16T10:13:16Z</time>
      </trkpt>
      <trkpt lat="47.30015" lon="4.9929">
        <ele>392.106</ele>
        <time>2017-11-16T10:13:27Z</time>
      </trkpt>
      <trkpt lat="47.3002" lon="4.99292">
        <ele>390.923</ele>
        <time>2017-11-16T10:13:38Z</time>
      </trkpt>
      <trkpt lat="47.30025" lon="4.99295">
        <ele>390.876</ele>
        <time>2017-11-16T10:13:49Z</time>
      </trkpt>
      <trkpt lat="47.3003" lon="4.99303">
        <ele>391.596</ele>
        <time>2017-11-16T10:14:00Z</time>
      </trkpt>
      <trkpt lat="47.30032" lon="4.99308">
        <ele>391.342</ele>
        <time>2017-11-16T10:14:11Z</time>
      </trkpt>
      <trkpt lat="47.30033" lon="4.99315">
        <ele>390.201</ele>
        <time>2017-11-16T10:14:22Z</time>
      </trkpt>
      <trkpt lat="47.30033" lon="4.99323">
        <ele>388.555</ele>
        <time>2017-11-16T10:14:33Z</time>
      </trkpt>
      <trkpt lat="47.30033" lon="4.99332">
        <ele>385.964</ele>
        <time>2017-11-16T10:14:44Z</time>
      </trkpt>
      <trkpt lat="47.3003" lon="4.9934">
        <ele>386.293</ele>
        <time>2017-11-16T10:14:55Z</time>
      </trkpt>
      <trkpt lat="47.3003" lon="4.99345">
        <ele>385.043</ele>
        <time>2017-11-16T10:15:06Z</time>
      </trkpt>
      <trkpt lat="47.30027" lon="4.9935">
        <ele>385.146</ele>
        <time>2017-11-16T10:15:17Z</time>
      </trkpt>
      <trkpt lat="47.30027" lon="4.99358">
        <ele>384.063</ele>
        <time>2017-11-16T10:15:28Z</time>
      </trkpt>
      <trkpt lat="47.30025" lon="4.99365">
        <ele>383.398</ele>
        <time>2017-11-16T10:15:39Z</time>
      </trkpt>
      <trkpt lat="47.30023" lon="4.99378">
        <ele>381.585</ele>
        <time>2017-11-16T10:15:50Z</time>
      </trkpt>
      <trkpt lat="47.3002" lon="4.99397">
        <ele>380.697</ele>
        <time>2017-11-16T10:16:01Z</time>
      </trkpt>
      <trkpt lat="47.30013" lon="4.99415">
        <ele>381.886</ele>
        <time>2017-11-16T10:16:12Z</time>
      </trkpt>
      <trkpt lat="47.3001" lon="4.99435">
        <ele>380.417</ele>
        <time>2017-11-16T10:16:23Z</time>
      </trkpt>
      <trkpt lat="47.30005" lon="4.99453">
        <ele>377.963</ele>
        <time>2017-11-16T10:16:34Z</time>
      </trkpt>
      <trkpt lat="47.29995" lon="4.99465">
        <ele>375.954</ele>
        <time>2017-11-16T10:16:45Z</time>
      </trkpt>
      <trkpt lat="47.29988" lon="4.99472">
        <ele>376.22</ele>
        <time>2017-11-16T10:16:56Z</time>
      </trkpt>
      <trkpt lat="47.29983" lon="4.99475">
        <ele>376.51</ele>
        <time>2017-11-16T10:17:07Z</time>
      </trkpt>
      <trkpt lat="47.2998" lon="4.99475">
        <ele>377.089</ele>
        <time>2017-11-16T10:17:18Z</time>
      </trkpt>
      <trkpt lat="47.2997" lon="4.99472">
        <ele>374.976</ele>
        <time>2017-11-16T10:17:29Z</time>
      </trkpt>
      <trkpt lat="47.29962" lon="4.9947">
        <ele>374.918</ele>
        <time>2017-11-16T10:17:40Z</time>
      </trkpt>
      <trkpt lat="47.2996" lon="4.9947">
        <ele>375.32</ele>
        <time>2017-11-16T10:17:51Z</time>
      </trkpt>
      <trkpt lat="47.2995" lon="4.99468">
        <ele>376.31</ele>
        <time>2017-11-16T10:18:02Z</time>
      </trkpt>
      <trkpt lat="47.29943" lon="4.99465">
        <ele>375.351</ele>
        <time>2017-11-16T10:18:13Z</time>
      </trkpt>
      <trkpt lat="47.29932" lon="4.9946">
        <ele>375.346</ele>
        <time>2017-11-16T10:18:24Z</time>
      </trkpt>
      <trkpt lat="47.29922" lon="4.99458">
        <ele>376.866</ele>
        <time>2017-11-16T10:18:35Z</time>
      </trkpt>
      <trkpt lat="47.29912" lon="4.99457">
        <ele>377.761</ele>
        <time>2017-11-16T10:18:46Z</time>
      </trkpt>
      <trkpt lat="47.299" lon="4.99457">
        <ele>374.869</ele>
        <time>2017-11-16T10:18:57Z</time>
      </trkpt>
      <trkpt lat="47.29897" lon="4.99457">
        <ele>374.096</ele>
        <time>2017-11-16T10:19:08Z</time>
      </trkpt>
      <trkpt lat="47.29897" lon="4.99457">
        <ele>374.014</ele>
        <time>2017-11-16T10:19:19Z</time>
      </trkpt>
      <trkpt lat="47.29892" lon="4.99457">
        <ele>372.717</ele>
        <time>2017-11-16T10:19:30Z</time>
      </trkpt>
      <trkpt lat="47.29882" lon="4.99462">
        <ele>368.676</ele>
        <time>2017-11-16T10:19:41Z</time>
      </trkpt>
      <trkpt lat="47.2987" lon="4.9947">
        <ele>371.549</ele>
        <time>2017-11-16T10:19:52Z</time>
      </trkpt>
      <trkpt lat="47.29865" lon="4.99472">
        <ele>371.724</ele>
        <time>2017-11-16T10:20:03Z</time>
      </trkpt>
      <trkpt lat="47.2986" lon="4.99473">
        <ele>371.522</ele>
        <time>2017-11-16T10:20:14Z</time>
      </trkpt>
      <trkpt lat="47.29855" lon="4.99475">
        <ele>371.806</ele>
        <time>2017-11-16T10:20:25Z</time>
      </trkpt>
      <trkpt lat="47.29845" lon="4.99473">
        <ele>371.654</ele>
        <time>2017-11-16T10:20:36Z</time>
      </trkpt>
      <trkpt lat="47.29838" lon="4.99473">
        <ele>372.003</ele>
        <time>2017-11-16T10:20:47Z</time>
      </trkpt>
      <trkpt lat="47.29827" lon="4.9947">
        <ele>369.478</ele>
        <time>2017-11-16T10:20:58Z</time>
      </trkpt>
      <trkpt lat="47.2982" lon="4.99468">
        <ele>369.111</ele>
        <time>2017-11-16T10:21:09Z</time>
      </trkpt>
      <trkpt lat="47.29808" lon="4.9947">
        <ele>367.912</ele>
        <time>2017-11-16T10:21:20Z</time>
      </trkpt>
      <trkpt lat="47.29798" lon="4.9947">
        <ele>369.684</ele>
        <time>2017-11-16T10:21:31Z</time>
      </trkpt>
      <trkpt lat="47.29783" lon="4.99463">
        <ele>370.433</ele>
        <time>2017-11-16T10:21:42Z</time>
      </trkpt>
      <trkpt lat="47.29768" lon="4.99455">
        <ele>370.691</ele>
        <time>2017-11-16T10:21:53Z</time>
      </trkpt>
      <trkpt lat="47.29758" lon="4.9945">
        <ele>369.567</ele>
        <time>2017-11-16T10:22:04Z</time>
      </trkpt>
      <trkpt lat="47.29757" lon="4.99448">
        <ele>369.378</ele>
        <time>2017-11-16T10:22:15Z</time>
      </trkpt>
      <trkpt lat="47.29757" lon="4.99448">
        <ele>369.378</ele>
        <time>2017-11-16T10:22:26Z</time>
      </trkpt>
      <trkpt lat="47.29757" lon="4.99448">
        <ele>369.235</ele>
        <time>2017-11-16T10:22:37Z</time>
      </trkpt>
      <trkpt lat="47.29755" lon="4.99447">
        <ele>369.345</ele>
        <time>2017-11-16T10:22:48Z</time>
      </trkpt>
      <trkpt lat="47.29752" lon="4.99447">
        <ele>370.104</ele>
        <time>2017-11-16T10:22:59Z</time>
      </trkpt>
      <trkpt lat="47.29742" lon="4.99442">
        <ele>370.479</ele>
        <time>2017-11-16T10:23:10Z</time>
      </trkpt>
      <trkpt lat="47.29725" lon="4.99435">
        <ele>367.996</ele>
        <time>2017-11-16T10:23:21Z</time>
      </trkpt>
      <trkpt lat="47.29715" lon="4.99435">
        <ele>367.92</ele>
        <time>2017-11-16T10:23:32Z</time>
      </trkpt>
      <trkpt lat="47.29703" lon="4.99437">
        <ele>366.748</ele>
        <time>2017-11-16T10:23:43Z</time>
      </trkpt>
      <trkpt lat="47.29695" lon="4.99433">
        <ele>367.069</ele>
        <time>2017-11-16T10:23:54Z</time>
      </trkpt>
      <trkpt lat="47.2968" lon="4.99425">
        <ele>367.864</ele>
        <time>2017-11-16T10:24:05Z</time>
      </trkpt>
      <trkpt lat="47.2967" lon="4.99413">
        <ele>368.152</ele>
        <time>2017-11-16T10:24:16Z</time>
      </trkpt>
      <trkpt lat="47.29665" lon="4.99403">
        <ele>368.124</ele>
        <time>2017-11-16T10:24:27Z</time>
      </trkpt>
      <trkpt lat="47.29657" lon="4.99393">
        <ele>369.077</ele>
        <time>2017-11-16T10:24:38Z</time>
      </trkpt>
      <trkpt lat="47.29648" lon="4.99383">
        <ele>372.853</ele>
        <time>2017-11-16T10:24:49Z</time>
      </trkpt>
      <trkpt lat="47.2964" lon="4.99373">
        <ele>372.465</ele>
        <time>2017-11-16T10:25:00Z</time>
      </trkpt>
      <trkpt lat="47.29638" lon="4.9937">
        <ele>373.228</ele>
        <time>2017-11-16T10:25:11Z</time>
      </trkpt>
      <trkpt lat="47.29638" lon="4.9937">
        <ele>373.228</ele>
        <time>2017-11-16T10:25:22Z</time>
      </trkpt>
      <trkpt lat="47.29638" lon="4.9937">
        <ele>373.443</ele>
        <time>2017-11-16T10:25:33Z</time>
      </trkpt>
      <trkpt lat="47.29627" lon="4.99368">
        <ele>369.982</ele>
        <time>2017-11-16T10:25:44Z</time>
      </trkpt>
      <trkpt lat="47.29622" lon="4.99372">
        <ele>369.297</ele>
        <time>2017-11-16T10:25:55Z</time>
      </trkpt>
      <trkpt lat="47.29612" lon="4.99373">
        <ele>366.751</ele>
        <time>2017-11-16T10:26:06Z</time>
      </trkpt>
      <trkpt lat="47.29612" lon="4.99373">
        <ele>366.388</ele>
        <time>2017-11-16T10:26:17Z</time>
      </trkpt>
      <trkpt lat="47.2961" lon="4.99373">
        <ele>366.16</ele>
        <time>2017-11-16T10:26:28Z</time>
      </trkpt>
      <trkpt lat="47.29597" lon="4.99375">
        <ele>365.661</ele>
        <time>2017-11-16T10:26:39Z</time>
      </trkpt>
      <trkpt lat="47.2959" lon="4.99375">
        <ele>366.727</ele>
        <time>2017-11-16T10:26:50Z</time>
      </trkpt>
      <trkpt lat="47.29575" lon="4.99378">
        <ele>363.141</ele>
        <time>2017-11-16T10:27:01Z</time>
      </trkpt>
      <trkpt lat="47.29568" lon="4.99382">
        <ele>363.73</ele>
        <time>2017-11-16T10:27:12Z</time>
      </trkpt>
      <trkpt lat="47.29563" lon="4.99383">
        <ele>363.363</ele>
        <time>2017-11-16T10:27:23Z</time>
      </trkpt>
      <trkpt lat="47.29563" lon="4.99383">
        <ele>363.624</ele>
        <time>2017-11-16T10:27:34Z</time>
      </trkpt>
      <trkpt lat="47.29562" lon="4.99383">
        <ele>362.937</ele>
        <time>2017-11-16T10:27:45Z</time>
      </trkpt>
      <trkpt lat="47.29558" lon="4.99382">
        <ele>362.736</ele>
        <time>2017-11-16T10:27:56Z</time>
      </trkpt>
      <trkpt lat="47.2955" lon="4.9938">
        <ele>362.561</ele>
        <time>2017-11-16T10:28:07Z</time>
      </trkpt>
      <trkpt lat="47.29542" lon="4.99378">
        <ele>363.478</ele>
        <time>2017-11-16T10:28:18Z</time>
      </trkpt>
      <trkpt lat="47.29537" lon="4.99377">
        <ele>363.358</ele>
        <time>2017-11-16T10:28:29Z</time>
      </trkpt>
      <trkpt lat="47.29518" lon="4.99373">
        <ele>363.941</ele>
        <time>2017-11-16T10:28:40Z</time>
      </trkpt>
      <trkpt lat="47.295" lon="4.99363">
        <ele>363.812</ele>
        <time>2017-11-16T10:28:51Z</time>
      </trkpt>
      <trkpt lat="47.29492" lon="4.99348">
        <ele>357.197</ele>
        <time>2017-11-16T10:29:02Z</time>
      </trkpt>
      <trkpt lat="47.29483" lon="4.99332">
        <ele>354.911</ele>
        <time>2017-11-16T10:29:13Z</time>
      </trkpt>
      <trkpt lat="47.29472" lon="4.99322">
        <ele>358.259</ele>
        <time>2017-11-16T10:29:24Z</time>
      </trkpt>
      <trkpt lat="47.29462" lon="4.99317">
        <ele>359.978</ele>
        <time>2017-11-16T10:29:35Z</time>
      </trkpt>
      <trkpt lat="47.29455" lon="4.99312">
        <ele>362.028</ele>
        <time>2017-11-16T10:29:46Z</time>
      </trkpt>
      <trkpt lat="47.29442" lon="4.993">
        <ele>363.695</ele>
        <time>2017-11-16T10:29:57Z</time>
      </trkpt>
      <trkpt lat="47.29433" lon="4.99287">
        <ele>364.067</ele>
        <time>2017-11-16T10:30:08Z</time>
      </trkpt>
      <trkpt lat="47.29422" lon="4.99283">
        <ele>364.447</ele>
        <time>2017-11-16T10:30:19Z</time>
      </trkpt>
      <trkpt lat="47.29417" lon="4.99282">
        <ele>364.97</ele>
        <time>2017-11-16T10:30:30Z</time>
      </trkpt>
      <trkpt lat="47.29407" lon="4.99275">
        <ele>365.039</ele>
        <time>2017-11-16T10:30:41Z</time>
      </trkpt>
      <trkpt lat="47.29403" lon="4.99257">
        <ele>364.347</ele>
        <time>2017-11-16T10:30:52Z</time>
      </trkpt>
      <trkpt lat="47.294" lon="4.99242">
        <ele>367.04</ele>
        <time>2017-11-16T10:31:03Z</time>
      </trkpt>
      <trkpt lat="47.29392" lon="4.9923">
        <ele>369.419</ele>
        <time>2017-11-16T10:31:14Z</time>
      </trkpt>
      <trkpt lat="47.29387" lon="4.99217">
        <ele>371.737</ele>
        <time>2017-11-16T10:31:25Z</time>
      </trkpt>
      <trkpt lat="47.29383" lon="4.99198">
        <ele>369.13</ele>
        <time>2017-11-16T10:31:36Z</time>
      </trkpt>
      <trkpt lat="47.29385" lon="4.99185">
        <ele>367.69</ele>
        <time>2017-11-16T10:31:47Z</time>
      </trkpt>
      <trkpt lat="47.29388" lon="4.99172">
        <ele>367.583</ele>
        <time>2017-11-16T10:31:58Z</time>
      </trkpt>
      <trkpt lat="47.29392" lon="4.99167">
        <ele>368.441</ele>
        <time>2017-11-16T10:32:09Z</time>
      </trkpt>
      <trkpt lat="47.29395" lon="4.9916">
        <ele>367.245</ele>
        <time>2017-11-16T10:32:20Z</time>
      </trkpt>
      <trkpt lat="47.29403" lon="4.99152">
        <ele>365.948</ele>
        <time>2017-11-16T10:32:31Z</time>
      </trkpt>
      <trkpt lat="47.29412" lon="4.99143">
        <ele>365.996</ele>
        <time>2017-11-16T10:32:42Z</time>
      </trkpt>
      <trkpt lat="47.2942" lon="4.99132">
        <ele>365.189</ele>
        <time>2017-11-16T10:32:53Z</time>
      </trkpt>
      <trkpt lat="47.29423" lon="4.99132">
        <ele>366.141</ele>
        <time>2017-11-16T10:33:04Z</time>
      </trkpt>
      <trkpt lat="47.29432" lon="4.99135">
        <ele>368.643</ele>
        <time>2017-11-16T10:33:15Z</time>
      </trkpt>
      <trkpt lat="47.29442" lon="4.99137">
        <ele>368.812</ele>
        <time>2017-11-16T10:33:26Z</time>
      </trkpt>
      <trkpt lat="47.29455" lon="4.99137">
        <ele>368.771</ele>
        <time>2017-11-16T10:33:37Z</time>
      </trkpt>
      <trkpt lat="47.29462" lon="4.99135">
        <ele>369.933</ele>
        <time>2017-11-16T10:33:48Z</time>
      </trkpt>
      <trkpt lat="47.29468" lon="4.99135">
        <ele>372.937</ele>
        <time>2017-11-16T10:33:59Z</time>
      </trkpt>
      <trkpt lat="47.29472" lon="4.99133">
        <ele>374.995</ele>
        <time>2017-11-16T10:34:10Z</time>
      </trkpt>
      <trkpt lat="47.29472" lon="4.99133">
        <ele>374.995</ele>
        <time>2017-11-16T10:34:21Z</time>
      </trkpt>
      <trkpt lat="47.29472" lon="4.99133">
        <ele>374.727</ele>
        <time>2017-11-16T10:34:32Z</time>
      </trkpt>
      <trkpt lat="47.29472" lon="4.99133">
        <ele>374.602</ele>
        <time>2017-11-16T10:34:43Z</time>
      </trkpt>
      <trkpt lat="47.29473" lon="4.99133">
        <ele>374.36</ele>
        <time>2017-11-16T10:34:54Z</time>
      </trkpt>
      <trkpt lat="47.29473" lon="4.99133">
        <ele>374.36</ele>
        <time>2017-11-16T10:35:05Z</time>
      </trkpt>
      <trkpt lat="47.29473" lon="4.99133">
        <ele>374.36</ele>
        <time>2017-11-16T10:35:16Z</time>
      </trkpt>
      <trkpt lat="47.29472" lon="4.99133">
        <ele>373.054</ele>
        <time>2017-11-16T10:35:27Z</time>
      </trkpt>
      <trkpt lat="47.2947" lon="4.99133">
        <ele>373.596</ele>
        <time>2017-11-16T10:35:38Z</time>
      </trkpt>
      <trkpt lat="47.2947" lon="4.99133">
        <ele>375.63</ele>
        <time>2017-11-16T10:35:49Z</time>
      </trkpt>
      <trkpt lat="47.2947" lon="4.99133">
        <ele>375.421</ele>
        <time>2017-11-16T10:36:00Z</time>
      </trkpt>
      <trkpt lat="47.29475" lon="4.99135">
        <ele>376.649</ele>
        <time>2017-11-16T10:36:11Z</time>
      </trkpt>
      <trkpt lat="47.29475" lon="4.99135">
        <ele>376.649</ele>
        <time>2017-11-16T10:36:22Z</time>
      </trkpt>
      <trkpt lat="47.29475" lon="4.99135">
        <ele>376.609</ele>
        <time>2017-11-16T10:36:33Z</time>
      </trkpt>
      <trkpt lat="47.29475" lon="4.99137">
        <ele>376.461</ele>
        <time>2017-11-16T10:36:44Z</time>
      </trkpt>
      <trkpt lat="47.29475" lon="4.99137">
        <ele>376.461</ele>
        <time>2017-11-16T10:36:55Z</time>
      </trkpt>
      <trkpt lat="47.29473" lon="4.99137">
        <ele>376.892</ele>
        <time>2017-11-16T10:37:06Z</time>
      </trkpt>
      <trkpt lat="47.29472" lon="4.99135">
        <ele>375.542</ele>
        <time>2017-11-16T10:37:17Z</time>
      </trkpt>
      <trkpt lat="47.29468" lon="4.99133">
        <ele>375.842</ele>
        <time>2017-11-16T10:37:28Z</time>
      </trkpt>
      <trkpt lat="47.29463" lon="4.99133">
        <ele>375.211</ele>
        <time>2017-11-16T10:37:39Z</time>
      </trkpt>
      <trkpt lat="47.2946" lon="4.99128">
        <ele>375.524</ele>
        <time>2017-11-16T10:37:50Z</time>
      </trkpt>
      <trkpt lat="47.2945" lon="4.99128">
        <ele>375.234</ele>
        <time>2017-11-16T10:38:01Z</time>
      </trkpt>
      <trkpt lat="47.29445" lon="4.99128">
        <ele>374.337</ele>
        <time>2017-11-16T10:38:12Z</time>
      </trkpt>
      <trkpt lat="47.29428" lon="4.99138">
        <ele>371.298</ele>
        <time>2017-11-16T10:38:23Z</time>
      </trkpt>
      <trkpt lat="47.29413" lon="4.99147">
        <ele>369.758</ele>
        <time>2017-11-16T10:38:34Z</time>
      </trkpt>
      <trkpt lat="47.29402" lon="4.99152">
        <ele>367.629</ele>
        <time>2017-11-16T10:38:45Z</time>
      </trkpt>
      <trkpt lat="47.29395" lon="4.99155">
        <ele>366.783</ele>
        <time>2017-11-16T10:38:56Z</time>
      </trkpt>
      <trkpt lat="47.29388" lon="4.99162">
        <ele>365.919</ele>
        <time>2017-11-16T10:39:07Z</time>
      </trkpt>
      <trkpt lat="47.2938" lon="4.99173">
        <ele>364.332</ele>
        <time>2017-11-16T10:39:18Z</time>
      </trkpt>
      <trkpt lat="47.2937" lon="4.99177">
        <ele>364.058</ele>
        <time>2017-11-16T10:39:29Z</time>
      </trkpt>
      <trkpt lat="47.2936" lon="4.99175">
        <ele>362.27</ele>
        <time>2017-11-16T10:39:40Z</time>
      </trkpt>
      <trkpt lat="47.2935" lon="4.9917">
        <ele>359.365</ele>
        <time>2017-11-16T10:39:51Z</time>
      </trkpt>
      <trkpt lat="47.2935" lon="4.9917">
        <ele>359.618</ele>
        <time>2017-11-16T10:40:02Z</time>
      </trkpt>
      <trkpt lat="47.2935" lon="4.99168">
        <ele>359.716</ele>
        <time>2017-11-16T10:40:13Z</time>
      </trkpt>
      <trkpt lat="47.2935" lon="4.99168">
        <ele>359.716</ele>
        <time>2017-11-16T10:40:24Z</time>
      </trkpt>
      <trkpt lat="47.2935" lon="4.99168">
        <ele>359.716</ele>
        <time>2017-11-16T10:40:35Z</time>
      </trkpt>
      <trkpt lat="47.2935" lon="4.99168">
        <ele>359.716</ele>
        <time>2017-11-16T10:40:46Z</time>
      </trkpt>
      <trkpt lat="47.2935" lon="4.99168">
        <ele>359.716</ele>
        <time>2017-11-16T10:40:57Z</time>
      </trkpt>
      <trkpt lat="47.29348" lon="4.99167">
        <ele>360.193</ele>
        <time>2017-11-16T10:41:08Z</time>
      </trkpt>
      <trkpt lat="47.29347" lon="4.99167">
        <ele>359.765</ele>
        <time>2017-11-16T10:41:19Z</time>
      </trkpt>
      <trkpt lat="47.29345" lon="4.9916">
        <ele>359.524</ele>
        <time>2017-11-16T10:41:30Z</time>
      </trkpt>
      <trkpt lat="47.29345" lon="4.9916">
        <ele>359.524</ele>
        <time>2017-11-16T10:41:41Z</time>
      </trkpt>
      <trkpt lat="47.29345" lon="4.9916">
        <ele>359.524</ele>
        <time>2017-11-16T10:41:52Z</time>
      </trkpt>
      <trkpt lat="47.29345" lon="4.9916">
        <ele>359.524</ele>
        <time>2017-11-16T10:42:03Z</time>
      </trkpt>
      <trkpt lat="47.29345" lon="4.9916">
        <ele>359.607</ele>
        <time>2017-11-16T10:42:14Z</time>
      </trkpt>
      <trkpt lat="47.29345" lon="4.9916">
        <ele>359.607</ele>
        <time>2017-11-16T10:42:25Z</time>
      </trkpt>
      <trkpt lat="47.29345" lon="4.9916">
        <ele>359.849</ele>
        <time>2017-11-16T10:42:36Z</time>
      </trkpt>
      <trkpt lat="47.29345" lon="4.9916">
        <ele>359.529</ele>
        <time>2017-11-16T10:42:47Z</time>
      </trkpt>
      <trkpt lat="47.29345" lon="4.9916">
        <ele>359.529</ele>
        <time>2017-11-16T10:42:58Z</time>
      </trkpt>
      <trkpt lat="47.29343" lon="4.99158">
        <ele>357.972</ele>
        <time>2017-11-16T10:43:09Z</time>
      </trkpt>
      <trkpt lat="47.29343" lon="4.99158">
        <ele>358.053</ele>
        <time>2017-11-16T10:43:20Z</time>
      </trkpt>
      <trkpt lat="47.29343" lon="4.99158">
        <ele>358.487</ele>
        <time>2017-11-16T10:43:31Z</time>
      </trkpt>
      <trkpt lat="47.2934" lon="4.99153">
        <ele>358.558</ele>
        <time>2017-11-16T10:43:42Z</time>
      </trkpt>
      <trkpt lat="47.29337" lon="4.99148">
        <ele>358.053</ele>
        <time>2017-11-16T10:43:53Z</time>
      </trkpt>
      <trkpt lat="47.29328" lon="4.99138">
        <ele>356.89</ele>
        <time>2017-11-16T10:44:04Z</time>
      </trkpt>
      <trkpt lat="47.29322" lon="4.99125">
        <ele>356.421</ele>
        <time>2017-11-16T10:44:15Z</time>
      </trkpt>
      <trkpt lat="47.29312" lon="4.9911">
        <ele>355.613</ele>
        <time>2017-11-16T10:44:26Z</time>
      </trkpt>
      <trkpt lat="47.29305" lon="4.99098">
        <ele>355.066</ele>
        <time>2017-11-16T10:44:37Z</time>
      </trkpt>
      <trkpt lat="47.293" lon="4.99083">
        <ele>354.312</ele>
        <time>2017-11-16T10:44:48Z</time>
      </trkpt>
      <trkpt lat="47.29297" lon="4.9907">
        <ele>356.321</ele>
        <time>2017-11-16T10:44:59Z</time>
      </trkpt>
      <trkpt lat="47.29295" lon="4.99058">
        <ele>359.572</ele>
        <time>2017-11-16T10:45:10Z</time>
      </trkpt>
      <trkpt lat="47.29292" lon="4.99043">
        <ele>359.629</ele>
        <time>2017-11-16T10:45:21Z</time>
      </trkpt>
      <trkpt lat="47.2929" lon="4.9903">
        <ele>359.977</ele>
        <time>2017-11-16T10:45:32Z</time>
      </trkpt>
      <trkpt lat="47.29288" lon="4.99015">
        <ele>360.607</ele>
        <time>2017-11-16T10:45:43Z</time>
      </trkpt>
      <trkpt lat="47.2929" lon="4.98997">
        <ele>360.942</ele>
        <time>2017-11-16T10:45:54Z</time>
      </trkpt>
      <trkpt lat="47.2929" lon="4.9898">
        <ele>360.485</ele>
        <time>2017-11-16T10:46:05Z</time>
      </trkpt>
      <trkpt lat="47.2929" lon="4.98965">
        <ele>360.591</ele>
        <time>2017-11-16T10:46:16Z</time>
      </trkpt>
      <trkpt lat="47.29292" lon="4.98948">
        <ele>360.957</ele>
        <time>2017-11-16T10:46:27Z</time>
      </trkpt>
      <trkpt lat="47.29292" lon="4.98935">
        <ele>362.044</ele>
        <time>2017-11-16T10:46:38Z</time>
      </trkpt>
      <trkpt lat="47.29293" lon="4.98918">
        <ele>363.012</ele>
        <time>2017-11-16T10:46:49Z</time>
      </trkpt>
      <trkpt lat="47.29295" lon="4.9891">
        <ele>363.408</ele>
        <time>2017-11-16T10:47:00Z</time>
      </trkpt>
      <trkpt lat="47.29293" lon="4.989">
        <ele>363.626</ele>
        <time>2017-11-16T10:47:11Z</time>
      </trkpt>
      <trkpt lat="47.29288" lon="4.98887">
        <ele>363.619</ele>
        <time>2017-11-16T10:47:22Z</time>
      </trkpt>
      <trkpt lat="47.29283" lon="4.98875">
        <ele>362.867</ele>
        <time>2017-11-16T10:47:33Z</time>
      </trkpt>
      <trkpt lat="47.29278" lon="4.98863">
        <ele>362.062</ele>
        <time>2017-11-16T10:47:44Z</time>
      </trkpt>
      <trkpt lat="47.29272" lon="4.98852">
        <ele>362.97</ele>
        <time>2017-11-16T10:47:55Z</time>
      </trkpt>
      <trkpt lat="47.29265" lon="4.9884">
        <ele>363.833</ele>
        <time>2017-11-16T10:48:06Z</time>
      </trkpt>
      <trkpt lat="47.29258" lon="4.98828">
        <ele>364.347</ele>
        <time>2017-11-16T10:48:17Z</time>
      </trkpt>
      <trkpt lat="47.29252" lon="4.98817">
        <ele>364.965</ele>
        <time>2017-11-16T10:48:28Z</time>
      </trkpt>
      <trkpt lat="47.29245" lon="4.98807">
        <ele>366.161</ele>
        <time>2017-11-16T10:48:39Z</time>
      </trkpt>
      <trkpt lat="47.29238" lon="4.98793">
        <ele>365.663</ele>
        <time>2017-11-16T10:48:50Z</time>
      </trkpt>
      <trkpt lat="47.2923" lon="4.9878">
        <ele>365.863</ele>
        <time>2017-11-16T10:49:01Z</time>
      </trkpt>
      <trkpt lat="47.29222" lon="4.98768">
        <ele>365.478</ele>
        <time>2017-11-16T10:49:12Z</time>
      </trkpt>
      <trkpt lat="47.2921" lon="4.98763">
        <ele>365.414</ele>
        <time>2017-11-16T10:49:23Z</time>
      </trkpt>
      <trkpt lat="47.29205" lon="4.98773">
        <ele>365.48</ele>
        <time>2017-11-16T10:49:34Z</time>
      </trkpt>
      <trkpt lat="47.29205" lon="4.9879">
        <ele>364.624</ele>
        <time>2017-11-16T10:49:45Z</time>
      </trkpt>
      <trkpt lat="47.29203" lon="4.98805">
        <ele>364.66</ele>
        <time>2017-11-16T10:49:56Z</time>
      </trkpt>
      <trkpt lat="47.29203" lon="4.98818">
        <ele>364.621</ele>
        <time>2017-11-16T10:50:07Z</time>
      </trkpt>
      <trkpt lat="47.29203" lon="4.98833">
        <ele>364.418</ele>
        <time>2017-11-16T10:50:18Z</time>
      </trkpt>
      <trkpt lat="47.292" lon="4.9885">
        <ele>363.438</ele>
        <time>2017-11-16T10:50:29Z</time>
      </trkpt>
      <trkpt lat="47.29197" lon="4.98863">
        <ele>363.547</ele>
        <time>2017-11-16T10:50:40Z</time>
      </trkpt>
      <trkpt lat="47.29193" lon="4.9888">
        <ele>363.674</ele>
        <time>2017-11-16T10:50:51Z</time>
      </trkpt>
      <trkpt lat="47.2919" lon="4.98897">
        <ele>362.913</ele>
        <time>2017-11-16T10:51:02Z</time>
      </trkpt>
      <trkpt lat="47.29188" lon="4.98905">
        <ele>362.872</ele>
        <time>2017-11-16T10:51:13Z</time>
      </trkpt>
      <trkpt lat="47.29185" lon="4.98923">
        <ele>362.253</ele>
        <time>2017-11-16T10:51:24Z</time>
      </trkpt>
      <trkpt lat="47.29178" lon="4.98937">
        <ele>364.258</ele>
        <time>2017-11-16T10:51:35Z</time>
      </trkpt>
      <trkpt lat="47.29173" lon="4.98947">
        <ele>364.436</ele>
        <time>2017-11-16T10:51:46Z</time>
      </trkpt>
      <trkpt lat="47.29163" lon="4.98955">
        <ele>364.162</ele>
        <time>2017-11-16T10:51:57Z</time>
      </trkpt>
      <trkpt lat="47.29157" lon="4.9896">
        <ele>364.559</ele>
        <time>2017-11-16T10:52:08Z</time>
      </trkpt>
      <trkpt lat="47.29145" lon="4.9897">
        <ele>364.308</ele>
        <time>2017-11-16T10:52:19Z</time>
      </trkpt>
      <trkpt lat="47.29132" lon="4.98978">
        <ele>362.923</ele>
        <time>2017-11-16T10:52:30Z</time>
      </trkpt>
      <trkpt lat="47.2912" lon="4.98983">
        <ele>362.703</ele>
        <time>2017-11-16T10:52:41Z</time>
      </trkpt>
      <trkpt lat="47.2911" lon="4.98988">
        <ele>361.84</ele>
        <time>2017-11-16T10:52:52Z</time>
      </trkpt>
      <trkpt lat="47.29098" lon="4.98995">
        <ele>361.013</ele>
        <time>2017-11-16T10:53:03Z</time>
      </trkpt>
      <trkpt lat="47.29087" lon="4.99">
        <ele>361.705</ele>
        <time>2017-11-16T10:53:14Z</time>
      </trkpt>
      <trkpt lat="47.29077" lon="4.99003">
        <ele>361.69</ele>
        <time>2017-11-16T10:53:25Z</time>
      </trkpt>
      <trkpt lat="47.29068" lon="4.99003">
        <ele>361.499</ele>
        <time>2017-11-16T10:53:36Z</time>
      </trkpt>
      <trkpt lat="47.29063" lon="4.99007">
        <ele>361.506</ele>
        <time>2017-11-16T10:53:47Z</time>
      </trkpt>
      <trkpt lat="47.2905" lon="4.99013">
        <ele>358.921</ele>
        <time>2017-11-16T10:53:58Z</time>
      </trkpt>
      <trkpt lat="47.29042" lon="4.99017">
        <ele>358.452</ele>
        <time>2017-11-16T10:54:09Z</time>
      </trkpt>
      <trkpt lat="47.29028" lon="4.99015">
        <ele>359.661</ele>
        <time>2017-11-16T10:54:20Z</time>
      </trkpt>
      <trkpt lat="47.29015" lon="4.99007">
        <ele>360.528</ele>
        <time>2017-11-16T10:54:31Z</time>
      </trkpt>
      <trkpt lat="47.29005" lon="4.99">
        <ele>361.212</ele>
        <time>2017-11-16T10:54:42Z</time>
      </trkpt>
      <trkpt lat="47.28992" lon="4.98995">
        <ele>360.505</ele>
        <time>2017-11-16T10:54:53Z</time>
      </trkpt>
      <trkpt lat="47.2898" lon="4.98995">
        <ele>360.297</ele>
        <time>2017-11-16T10:55:04Z</time>
      </trkpt>
      <trkpt lat="47.2897" lon="4.98995">
        <ele>362.03</ele>
        <time>2017-11-16T10:55:15Z</time>
      </trkpt>
      <trkpt lat="47.28955" lon="4.9899">
        <ele>360.006</ele>
        <time>2017-11-16T10:55:26Z</time>
      </trkpt>
      <trkpt lat="47.2894" lon="4.9898">
        <ele>357.282</ele>
        <time>2017-11-16T10:55:37Z</time>
      </trkpt>
      <trkpt lat="47.28928" lon="4.98972">
        <ele>356.276</ele>
        <time>2017-11-16T10:55:48Z</time>
      </trkpt>
      <trkpt lat="47.28915" lon="4.98965">
        <ele>355.5</ele>
        <time>2017-11-16T10:55:59Z</time>
      </trkpt>
      <trkpt lat="47.28907" lon="4.98958">
        <ele>355.942</ele>
        <time>2017-11-16T10:56:10Z</time>
      </trkpt>
      <trkpt lat="47.28898" lon="4.98948">
        <ele>357.15</ele>
        <time>2017-11-16T10:56:21Z</time>
      </trkpt>
      <trkpt lat="47.28892" lon="4.9894">
        <ele>357.739</ele>
        <time>2017-11-16T10:56:32Z</time>
      </trkpt>
      <trkpt lat="47.2888" lon="4.98933">
        <ele>357.471</ele>
        <time>2017-11-16T10:56:43Z</time>
      </trkpt>
      <trkpt lat="47.28872" lon="4.98925">
        <ele>358.531</ele>
        <time>2017-11-16T10:56:54Z</time>
      </trkpt>
      <trkpt lat="47.2886" lon="4.98917">
        <ele>357.66</ele>
        <time>2017-11-16T10:57:05Z</time>
      </trkpt>
      <trkpt lat="47.28852" lon="4.98903">
        <ele>359.066</ele>
        <time>2017-11-16T10:57:16Z</time>
      </trkpt>
      <trkpt lat="47.28845" lon="4.98892">
        <ele>358.401</ele>
        <time>2017-11-16T10:57:28Z</time>
      </trkpt>
    </trkseg>
  </trk>
</gpx>